<?xml version="1.0" encoding="UTF-8" standalone="no" ?>
<gpx xmlns="http://www.topografix.com/GPX/1/1" xmlns:xsi="http://www.w3.org/2001/XMLSchema-instance" xsi:schemaLocation="http://www.topografix.com/GPX/1/1 http://www.topografix.com/GPX/1/1/gpx.xsd" version="1.1" creator="VisuGPX - https://www.visugpx.com">
  <metadata>
    <name>Plage de l'Escalet- cap Camarat-cap Taillat</name>
    <desc><![CDATA[Depuis la plage de l'Escalet aller-retour jusqu'au cap Camarat puis aller-retour jusqu'au cap Taillat. Se renseigner sur l'état de la mer et l'importance de la houle avant d'entreprendre, certains passages pouvant être inondés.]]></desc>
  </metadata>
  <trk>
    <name><![CDATA[13/01/2022 10:24:07 Plage de l'Escalet- cap Camarat-cap Taillat]]></name>
    <trkseg>
      <trkpt lat="43.18753" lon="6.64132">
        <ele>18.200000762939</ele>
        <time>2022-01-13T09:24:07Z</time>
      </trkpt>
      <trkpt lat="43.18753" lon="6.64132">
        <ele>18.200000762939</ele>
        <time>2022-01-13T09:24:08Z</time>
      </trkpt>
      <trkpt lat="43.18751" lon="6.64132">
        <ele>18.200000762939</ele>
        <time>2022-01-13T09:24:44Z</time>
      </trkpt>
      <trkpt lat="43.1875" lon="6.64134">
        <ele>18</ele>
        <time>2022-01-13T09:25:11Z</time>
      </trkpt>
      <trkpt lat="43.18754" lon="6.64136">
        <ele>18</ele>
        <time>2022-01-13T09:25:29Z</time>
      </trkpt>
      <trkpt lat="43.18748" lon="6.64134">
        <ele>17.799999237061</ele>
        <time>2022-01-13T09:25:53Z</time>
      </trkpt>
      <trkpt lat="43.18749" lon="6.64136">
        <ele>17.799999237061</ele>
        <time>2022-01-13T09:26:23Z</time>
      </trkpt>
      <trkpt lat="43.18746" lon="6.64152">
        <ele>17.60000038147</ele>
        <time>2022-01-13T09:26:41Z</time>
      </trkpt>
      <trkpt lat="43.18744" lon="6.6417">
        <ele>17.200000762939</ele>
        <time>2022-01-13T09:26:56Z</time>
      </trkpt>
      <trkpt lat="43.18746" lon="6.64179">
        <ele>17</ele>
        <time>2022-01-13T09:27:02Z</time>
      </trkpt>
      <trkpt lat="43.18745" lon="6.64191">
        <ele>17.200000762939</ele>
        <time>2022-01-13T09:27:19Z</time>
      </trkpt>
      <trkpt lat="43.18737" lon="6.64192">
        <ele>16.799999237061</ele>
        <time>2022-01-13T09:27:31Z</time>
      </trkpt>
      <trkpt lat="43.18728" lon="6.64199">
        <ele>15.60000038147</ele>
        <time>2022-01-13T09:27:40Z</time>
      </trkpt>
      <trkpt lat="43.1872" lon="6.64211">
        <ele>13.800000190735</ele>
        <time>2022-01-13T09:27:55Z</time>
      </trkpt>
      <trkpt lat="43.18719" lon="6.64217">
        <ele>13.39999961853</ele>
        <time>2022-01-13T09:28:22Z</time>
      </trkpt>
      <trkpt lat="43.18725" lon="6.64224">
        <ele>13.39999961853</ele>
        <time>2022-01-13T09:28:36Z</time>
      </trkpt>
      <trkpt lat="43.18737" lon="6.64248">
        <ele>13</ele>
        <time>2022-01-13T09:28:55Z</time>
      </trkpt>
      <trkpt lat="43.18746" lon="6.64267">
        <ele>12.60000038147</ele>
        <time>2022-01-13T09:29:10Z</time>
      </trkpt>
      <trkpt lat="43.18754" lon="6.64278">
        <ele>12.39999961853</ele>
        <time>2022-01-13T09:29:19Z</time>
      </trkpt>
      <trkpt lat="43.18763" lon="6.64288">
        <ele>12</ele>
        <time>2022-01-13T09:29:28Z</time>
      </trkpt>
      <trkpt lat="43.18774" lon="6.64309">
        <ele>12</ele>
        <time>2022-01-13T09:29:44Z</time>
      </trkpt>
      <trkpt lat="43.1878" lon="6.64332">
        <ele>12</ele>
        <time>2022-01-13T09:30:01Z</time>
      </trkpt>
      <trkpt lat="43.18787" lon="6.6435">
        <ele>11.60000038147</ele>
        <time>2022-01-13T09:30:15Z</time>
      </trkpt>
      <trkpt lat="43.18788" lon="6.64352">
        <ele>11.60000038147</ele>
        <time>2022-01-13T09:30:17Z</time>
      </trkpt>
      <trkpt lat="43.18791" lon="6.64356">
        <ele>11.60000038147</ele>
        <time>2022-01-13T09:30:20Z</time>
      </trkpt>
      <trkpt lat="43.188" lon="6.64379">
        <ele>11.39999961853</ele>
        <time>2022-01-13T09:30:36Z</time>
      </trkpt>
      <trkpt lat="43.18813" lon="6.64401">
        <ele>11.60000038147</ele>
        <time>2022-01-13T09:30:54Z</time>
      </trkpt>
      <trkpt lat="43.18813" lon="6.64401">
        <ele>11.800000190735</ele>
        <time>2022-01-13T09:30:57Z</time>
      </trkpt>
      <trkpt lat="43.18814" lon="6.64404">
        <ele>11.800000190735</ele>
        <time>2022-01-13T09:31:00Z</time>
      </trkpt>
      <trkpt lat="43.18822" lon="6.6443">
        <ele>12</ele>
        <time>2022-01-13T09:31:17Z</time>
      </trkpt>
      <trkpt lat="43.18824" lon="6.64462">
        <ele>12.60000038147</ele>
        <time>2022-01-13T09:31:37Z</time>
      </trkpt>
      <trkpt lat="43.18823" lon="6.64485">
        <ele>12.60000038147</ele>
        <time>2022-01-13T09:31:53Z</time>
      </trkpt>
      <trkpt lat="43.18817" lon="6.64499">
        <ele>11.60000038147</ele>
        <time>2022-01-13T09:32:09Z</time>
      </trkpt>
      <trkpt lat="43.18805" lon="6.64505">
        <ele>9.1999998092651</ele>
        <time>2022-01-13T09:32:31Z</time>
      </trkpt>
      <trkpt lat="43.18806" lon="6.64507">
        <ele>9</ele>
        <time>2022-01-13T09:32:36Z</time>
      </trkpt>
      <trkpt lat="43.18797" lon="6.64528">
        <ele>8.6000003814697</ele>
        <time>2022-01-13T09:32:56Z</time>
      </trkpt>
      <trkpt lat="43.188" lon="6.64538">
        <ele>8.8000001907349</ele>
        <time>2022-01-13T09:33:03Z</time>
      </trkpt>
      <trkpt lat="43.18803" lon="6.64554">
        <ele>9.6000003814697</ele>
        <time>2022-01-13T09:33:16Z</time>
      </trkpt>
      <trkpt lat="43.18802" lon="6.64571">
        <ele>9.8000001907349</ele>
        <time>2022-01-13T09:33:30Z</time>
      </trkpt>
      <trkpt lat="43.18801" lon="6.64579">
        <ele>10.199999809265</ele>
        <time>2022-01-13T09:33:53Z</time>
      </trkpt>
      <trkpt lat="43.18801" lon="6.64581">
        <ele>10.199999809265</ele>
        <time>2022-01-13T09:33:57Z</time>
      </trkpt>
      <trkpt lat="43.188" lon="6.64596">
        <ele>9.6000003814697</ele>
        <time>2022-01-13T09:34:17Z</time>
      </trkpt>
      <trkpt lat="43.18799" lon="6.64603">
        <ele>9.8000001907349</ele>
        <time>2022-01-13T09:34:34Z</time>
      </trkpt>
      <trkpt lat="43.18791" lon="6.64622">
        <ele>9.8000001907349</ele>
        <time>2022-01-13T09:34:58Z</time>
      </trkpt>
      <trkpt lat="43.18787" lon="6.64635">
        <ele>10.800000190735</ele>
        <time>2022-01-13T09:35:16Z</time>
      </trkpt>
      <trkpt lat="43.1879" lon="6.64652">
        <ele>10.800000190735</ele>
        <time>2022-01-13T09:35:36Z</time>
      </trkpt>
      <trkpt lat="43.18791" lon="6.6467">
        <ele>10.60000038147</ele>
        <time>2022-01-13T09:35:54Z</time>
      </trkpt>
      <trkpt lat="43.18794" lon="6.6468">
        <ele>11.60000038147</ele>
        <time>2022-01-13T09:36:13Z</time>
      </trkpt>
      <trkpt lat="43.18792" lon="6.64682">
        <ele>11.60000038147</ele>
        <time>2022-01-13T09:36:40Z</time>
      </trkpt>
      <trkpt lat="43.18792" lon="6.64682">
        <ele>11.800000190735</ele>
        <time>2022-01-13T09:37:26Z</time>
      </trkpt>
      <trkpt lat="43.18793" lon="6.64683">
        <ele>12.60000038147</ele>
        <time>2022-01-13T09:37:46Z</time>
      </trkpt>
      <trkpt lat="43.18791" lon="6.64683">
        <ele>12.800000190735</ele>
        <time>2022-01-13T09:38:46Z</time>
      </trkpt>
      <trkpt lat="43.1879" lon="6.64682">
        <ele>13</ele>
        <time>2022-01-13T09:39:42Z</time>
      </trkpt>
      <trkpt lat="43.18791" lon="6.64684">
        <ele>12.800000190735</ele>
        <time>2022-01-13T09:40:20Z</time>
      </trkpt>
      <trkpt lat="43.18795" lon="6.64697">
        <ele>13</ele>
        <time>2022-01-13T09:40:44Z</time>
      </trkpt>
      <trkpt lat="43.18802" lon="6.64715">
        <ele>14</ele>
        <time>2022-01-13T09:41:07Z</time>
      </trkpt>
      <trkpt lat="43.18802" lon="6.64722">
        <ele>14</ele>
        <time>2022-01-13T09:41:15Z</time>
      </trkpt>
      <trkpt lat="43.18803" lon="6.6473">
        <ele>13.60000038147</ele>
        <time>2022-01-13T09:41:21Z</time>
      </trkpt>
      <trkpt lat="43.18807" lon="6.64748">
        <ele>12</ele>
        <time>2022-01-13T09:41:41Z</time>
      </trkpt>
      <trkpt lat="43.1881" lon="6.64774">
        <ele>13.800000190735</ele>
        <time>2022-01-13T09:42:03Z</time>
      </trkpt>
      <trkpt lat="43.18819" lon="6.64786">
        <ele>14</ele>
        <time>2022-01-13T09:42:26Z</time>
      </trkpt>
      <trkpt lat="43.18827" lon="6.64795">
        <ele>14.800000190735</ele>
        <time>2022-01-13T09:42:47Z</time>
      </trkpt>
      <trkpt lat="43.18836" lon="6.64797">
        <ele>16.60000038147</ele>
        <time>2022-01-13T09:43:11Z</time>
      </trkpt>
      <trkpt lat="43.18844" lon="6.64808">
        <ele>13.39999961853</ele>
        <time>2022-01-13T09:43:31Z</time>
      </trkpt>
      <trkpt lat="43.18847" lon="6.64818">
        <ele>13.39999961853</ele>
        <time>2022-01-13T09:43:45Z</time>
      </trkpt>
      <trkpt lat="43.1886" lon="6.64825">
        <ele>13.60000038147</ele>
        <time>2022-01-13T09:44:06Z</time>
      </trkpt>
      <trkpt lat="43.18873" lon="6.64832">
        <ele>14.199999809265</ele>
        <time>2022-01-13T09:44:19Z</time>
      </trkpt>
      <trkpt lat="43.1887" lon="6.64854">
        <ele>13.199999809265</ele>
        <time>2022-01-13T09:44:38Z</time>
      </trkpt>
      <trkpt lat="43.1887" lon="6.64861">
        <ele>12.60000038147</ele>
        <time>2022-01-13T09:44:43Z</time>
      </trkpt>
      <trkpt lat="43.1888" lon="6.64887">
        <ele>11</ele>
        <time>2022-01-13T09:45:07Z</time>
      </trkpt>
      <trkpt lat="43.18885" lon="6.64908">
        <ele>10</ele>
        <time>2022-01-13T09:45:28Z</time>
      </trkpt>
      <trkpt lat="43.18887" lon="6.64934">
        <ele>10.60000038147</ele>
        <time>2022-01-13T09:45:50Z</time>
      </trkpt>
      <trkpt lat="43.18898" lon="6.64943">
        <ele>11.39999961853</ele>
        <time>2022-01-13T09:46:10Z</time>
      </trkpt>
      <trkpt lat="43.18907" lon="6.64957">
        <ele>11.199999809265</ele>
        <time>2022-01-13T09:46:32Z</time>
      </trkpt>
      <trkpt lat="43.18906" lon="6.64957">
        <ele>11.199999809265</ele>
        <time>2022-01-13T09:47:07Z</time>
      </trkpt>
      <trkpt lat="43.18909" lon="6.64955">
        <ele>11</ele>
        <time>2022-01-13T09:47:43Z</time>
      </trkpt>
      <trkpt lat="43.18922" lon="6.64956">
        <ele>10.199999809265</ele>
        <time>2022-01-13T09:47:58Z</time>
      </trkpt>
      <trkpt lat="43.18932" lon="6.64955">
        <ele>10.39999961853</ele>
        <time>2022-01-13T09:48:12Z</time>
      </trkpt>
      <trkpt lat="43.18944" lon="6.64953">
        <ele>10.39999961853</ele>
        <time>2022-01-13T09:48:29Z</time>
      </trkpt>
      <trkpt lat="43.18962" lon="6.64957">
        <ele>10</ele>
        <time>2022-01-13T09:48:49Z</time>
      </trkpt>
      <trkpt lat="43.1897" lon="6.64958">
        <ele>11.199999809265</ele>
        <time>2022-01-13T09:49:11Z</time>
      </trkpt>
      <trkpt lat="43.18977" lon="6.64958">
        <ele>11.39999961853</ele>
        <time>2022-01-13T09:49:48Z</time>
      </trkpt>
      <trkpt lat="43.18975" lon="6.64946">
        <ele>13.199999809265</ele>
        <time>2022-01-13T09:50:09Z</time>
      </trkpt>
      <trkpt lat="43.1897" lon="6.64948">
        <ele>12.800000190735</ele>
        <time>2022-01-13T09:50:48Z</time>
      </trkpt>
      <trkpt lat="43.18969" lon="6.64949">
        <ele>13.199999809265</ele>
        <time>2022-01-13T09:50:56Z</time>
      </trkpt>
      <trkpt lat="43.18972" lon="6.64948">
        <ele>13.800000190735</ele>
        <time>2022-01-13T09:51:16Z</time>
      </trkpt>
      <trkpt lat="43.18975" lon="6.6495">
        <ele>14</ele>
        <time>2022-01-13T09:51:47Z</time>
      </trkpt>
      <trkpt lat="43.18977" lon="6.64957">
        <ele>13.800000190735</ele>
        <time>2022-01-13T09:52:25Z</time>
      </trkpt>
      <trkpt lat="43.18977" lon="6.64961">
        <ele>13.199999809265</ele>
        <time>2022-01-13T09:52:52Z</time>
      </trkpt>
      <trkpt lat="43.18987" lon="6.64962">
        <ele>13.199999809265</ele>
        <time>2022-01-13T09:53:33Z</time>
      </trkpt>
      <trkpt lat="43.19008" lon="6.64962">
        <ele>14.199999809265</ele>
        <time>2022-01-13T09:53:56Z</time>
      </trkpt>
      <trkpt lat="43.19014" lon="6.64964">
        <ele>14.199999809265</ele>
        <time>2022-01-13T09:54:02Z</time>
      </trkpt>
      <trkpt lat="43.19017" lon="6.64985">
        <ele>13.800000190735</ele>
        <time>2022-01-13T09:54:16Z</time>
      </trkpt>
      <trkpt lat="43.19023" lon="6.64998">
        <ele>14.39999961853</ele>
        <time>2022-01-13T09:54:38Z</time>
      </trkpt>
      <trkpt lat="43.19023" lon="6.64997">
        <ele>14.39999961853</ele>
        <time>2022-01-13T09:54:59Z</time>
      </trkpt>
      <trkpt lat="43.19035" lon="6.65013">
        <ele>14.199999809265</ele>
        <time>2022-01-13T09:55:18Z</time>
      </trkpt>
      <trkpt lat="43.19056" lon="6.65034">
        <ele>13.60000038147</ele>
        <time>2022-01-13T09:55:44Z</time>
      </trkpt>
      <trkpt lat="43.19058" lon="6.65054">
        <ele>12.39999961853</ele>
        <time>2022-01-13T09:56:08Z</time>
      </trkpt>
      <trkpt lat="43.19058" lon="6.65055">
        <ele>11.800000190735</ele>
        <time>2022-01-13T09:56:48Z</time>
      </trkpt>
      <trkpt lat="43.19064" lon="6.65073">
        <ele>11.800000190735</ele>
        <time>2022-01-13T09:57:09Z</time>
      </trkpt>
      <trkpt lat="43.19074" lon="6.65095">
        <ele>13.199999809265</ele>
        <time>2022-01-13T09:57:31Z</time>
      </trkpt>
      <trkpt lat="43.19082" lon="6.65096">
        <ele>13.39999961853</ele>
        <time>2022-01-13T09:57:53Z</time>
      </trkpt>
      <trkpt lat="43.19088" lon="6.65096">
        <ele>12.800000190735</ele>
        <time>2022-01-13T09:58:22Z</time>
      </trkpt>
      <trkpt lat="43.19086" lon="6.65096">
        <ele>12.199999809265</ele>
        <time>2022-01-13T09:59:05Z</time>
      </trkpt>
      <trkpt lat="43.19092" lon="6.65094">
        <ele>12.39999961853</ele>
        <time>2022-01-13T09:59:47Z</time>
      </trkpt>
      <trkpt lat="43.19101" lon="6.65098">
        <ele>11.800000190735</ele>
        <time>2022-01-13T10:00:10Z</time>
      </trkpt>
      <trkpt lat="43.19099" lon="6.65104">
        <ele>10.800000190735</ele>
        <time>2022-01-13T10:00:30Z</time>
      </trkpt>
      <trkpt lat="43.19105" lon="6.65114">
        <ele>9.1999998092651</ele>
        <time>2022-01-13T10:00:51Z</time>
      </trkpt>
      <trkpt lat="43.19119" lon="6.65113">
        <ele>10.800000190735</ele>
        <time>2022-01-13T10:01:12Z</time>
      </trkpt>
      <trkpt lat="43.19125" lon="6.6513">
        <ele>12.60000038147</ele>
        <time>2022-01-13T10:01:34Z</time>
      </trkpt>
      <trkpt lat="43.19129" lon="6.65157">
        <ele>15</ele>
        <time>2022-01-13T10:01:58Z</time>
      </trkpt>
      <trkpt lat="43.19134" lon="6.65165">
        <ele>16.39999961853</ele>
        <time>2022-01-13T10:02:24Z</time>
      </trkpt>
      <trkpt lat="43.19141" lon="6.65179">
        <ele>18</ele>
        <time>2022-01-13T10:02:45Z</time>
      </trkpt>
      <trkpt lat="43.19152" lon="6.65196">
        <ele>18.39999961853</ele>
        <time>2022-01-13T10:03:09Z</time>
      </trkpt>
      <trkpt lat="43.19153" lon="6.65209">
        <ele>15.39999961853</ele>
        <time>2022-01-13T10:03:33Z</time>
      </trkpt>
      <trkpt lat="43.19161" lon="6.65213">
        <ele>15</ele>
        <time>2022-01-13T10:04:12Z</time>
      </trkpt>
      <trkpt lat="43.19164" lon="6.65214">
        <ele>14.39999961853</ele>
        <time>2022-01-13T10:04:19Z</time>
      </trkpt>
      <trkpt lat="43.19177" lon="6.65221">
        <ele>12.60000038147</ele>
        <time>2022-01-13T10:04:39Z</time>
      </trkpt>
      <trkpt lat="43.19184" lon="6.65221">
        <ele>11.60000038147</ele>
        <time>2022-01-13T10:05:03Z</time>
      </trkpt>
      <trkpt lat="43.19197" lon="6.65215">
        <ele>11.60000038147</ele>
        <time>2022-01-13T10:05:21Z</time>
      </trkpt>
      <trkpt lat="43.19203" lon="6.6521">
        <ele>11.199999809265</ele>
        <time>2022-01-13T10:05:41Z</time>
      </trkpt>
      <trkpt lat="43.19208" lon="6.65207">
        <ele>11.199999809265</ele>
        <time>2022-01-13T10:06:02Z</time>
      </trkpt>
      <trkpt lat="43.19217" lon="6.65216">
        <ele>9.8000001907349</ele>
        <time>2022-01-13T10:06:20Z</time>
      </trkpt>
      <trkpt lat="43.19224" lon="6.65227">
        <ele>8.6000003814697</ele>
        <time>2022-01-13T10:06:34Z</time>
      </trkpt>
      <trkpt lat="43.19226" lon="6.65242">
        <ele>10.39999961853</ele>
        <time>2022-01-13T10:06:56Z</time>
      </trkpt>
      <trkpt lat="43.19237" lon="6.65245">
        <ele>11.39999961853</ele>
        <time>2022-01-13T10:07:12Z</time>
      </trkpt>
      <trkpt lat="43.19245" lon="6.65261">
        <ele>11.199999809265</ele>
        <time>2022-01-13T10:07:33Z</time>
      </trkpt>
      <trkpt lat="43.19258" lon="6.65275">
        <ele>11.199999809265</ele>
        <time>2022-01-13T10:07:56Z</time>
      </trkpt>
      <trkpt lat="43.19272" lon="6.65297">
        <ele>11.800000190735</ele>
        <time>2022-01-13T10:08:22Z</time>
      </trkpt>
      <trkpt lat="43.19282" lon="6.65328">
        <ele>11.800000190735</ele>
        <time>2022-01-13T10:08:48Z</time>
      </trkpt>
      <trkpt lat="43.19302" lon="6.65348">
        <ele>12.199999809265</ele>
        <time>2022-01-13T10:09:13Z</time>
      </trkpt>
      <trkpt lat="43.19317" lon="6.65377">
        <ele>11.60000038147</ele>
        <time>2022-01-13T10:09:37Z</time>
      </trkpt>
      <trkpt lat="43.19331" lon="6.65399">
        <ele>11.60000038147</ele>
        <time>2022-01-13T10:09:59Z</time>
      </trkpt>
      <trkpt lat="43.19336" lon="6.65413">
        <ele>12</ele>
        <time>2022-01-13T10:10:17Z</time>
      </trkpt>
      <trkpt lat="43.19335" lon="6.65423">
        <ele>11.60000038147</ele>
        <time>2022-01-13T10:10:28Z</time>
      </trkpt>
      <trkpt lat="43.19346" lon="6.65436">
        <ele>10.39999961853</ele>
        <time>2022-01-13T10:10:48Z</time>
      </trkpt>
      <trkpt lat="43.19355" lon="6.65449">
        <ele>12.60000038147</ele>
        <time>2022-01-13T10:11:10Z</time>
      </trkpt>
      <trkpt lat="43.1936" lon="6.65463">
        <ele>13.199999809265</ele>
        <time>2022-01-13T10:11:28Z</time>
      </trkpt>
      <trkpt lat="43.19368" lon="6.65481">
        <ele>12.39999961853</ele>
        <time>2022-01-13T10:11:51Z</time>
      </trkpt>
      <trkpt lat="43.19376" lon="6.65494">
        <ele>10</ele>
        <time>2022-01-13T10:12:13Z</time>
      </trkpt>
      <trkpt lat="43.19382" lon="6.655">
        <ele>9.8000001907349</ele>
        <time>2022-01-13T10:12:34Z</time>
      </trkpt>
      <trkpt lat="43.19389" lon="6.65508">
        <ele>9.8000001907349</ele>
        <time>2022-01-13T10:13:03Z</time>
      </trkpt>
      <trkpt lat="43.19408" lon="6.65513">
        <ele>10</ele>
        <time>2022-01-13T10:13:24Z</time>
      </trkpt>
      <trkpt lat="43.19423" lon="6.65528">
        <ele>10.800000190735</ele>
        <time>2022-01-13T10:13:48Z</time>
      </trkpt>
      <trkpt lat="43.19433" lon="6.65554">
        <ele>12.60000038147</ele>
        <time>2022-01-13T10:14:13Z</time>
      </trkpt>
      <trkpt lat="43.19445" lon="6.65563">
        <ele>13.39999961853</ele>
        <time>2022-01-13T10:14:30Z</time>
      </trkpt>
      <trkpt lat="43.19459" lon="6.65582">
        <ele>13</ele>
        <time>2022-01-13T10:14:54Z</time>
      </trkpt>
      <trkpt lat="43.19462" lon="6.65592">
        <ele>13.800000190735</ele>
        <time>2022-01-13T10:15:13Z</time>
      </trkpt>
      <trkpt lat="43.19471" lon="6.65625">
        <ele>15.800000190735</ele>
        <time>2022-01-13T10:15:45Z</time>
      </trkpt>
      <trkpt lat="43.19473" lon="6.65639">
        <ele>19</ele>
        <time>2022-01-13T10:16:10Z</time>
      </trkpt>
      <trkpt lat="43.19481" lon="6.65647">
        <ele>21.799999237061</ele>
        <time>2022-01-13T10:16:33Z</time>
      </trkpt>
      <trkpt lat="43.19484" lon="6.65646">
        <ele>21.799999237061</ele>
        <time>2022-01-13T10:17:16Z</time>
      </trkpt>
      <trkpt lat="43.19482" lon="6.65648">
        <ele>22.799999237061</ele>
        <time>2022-01-13T10:17:44Z</time>
      </trkpt>
      <trkpt lat="43.19482" lon="6.65648">
        <ele>22.799999237061</ele>
        <time>2022-01-13T10:17:47Z</time>
      </trkpt>
      <trkpt lat="43.19485" lon="6.65635">
        <ele>23.60000038147</ele>
        <time>2022-01-13T10:18:04Z</time>
      </trkpt>
      <trkpt lat="43.19489" lon="6.65635">
        <ele>26.60000038147</ele>
        <time>2022-01-13T10:18:23Z</time>
      </trkpt>
      <trkpt lat="43.19503" lon="6.65647">
        <ele>29.200000762939</ele>
        <time>2022-01-13T10:18:47Z</time>
      </trkpt>
      <trkpt lat="43.19512" lon="6.65655">
        <ele>32.200000762939</ele>
        <time>2022-01-13T10:19:10Z</time>
      </trkpt>
      <trkpt lat="43.19527" lon="6.6567">
        <ele>33.799999237061</ele>
        <time>2022-01-13T10:19:34Z</time>
      </trkpt>
      <trkpt lat="43.19543" lon="6.65686">
        <ele>34.599998474121</ele>
        <time>2022-01-13T10:19:59Z</time>
      </trkpt>
      <trkpt lat="43.19555" lon="6.65705">
        <ele>34.400001525879</ele>
        <time>2022-01-13T10:20:20Z</time>
      </trkpt>
      <trkpt lat="43.19556" lon="6.65706">
        <ele>34.400001525879</ele>
        <time>2022-01-13T10:20:21Z</time>
      </trkpt>
      <trkpt lat="43.19562" lon="6.6573">
        <ele>32.200000762939</ele>
        <time>2022-01-13T10:20:43Z</time>
      </trkpt>
      <trkpt lat="43.19563" lon="6.65749">
        <ele>29.200000762939</ele>
        <time>2022-01-13T10:21:04Z</time>
      </trkpt>
      <trkpt lat="43.19565" lon="6.65755">
        <ele>27.799999237061</ele>
        <time>2022-01-13T10:21:12Z</time>
      </trkpt>
      <trkpt lat="43.19563" lon="6.65775">
        <ele>24.799999237061</ele>
        <time>2022-01-13T10:21:33Z</time>
      </trkpt>
      <trkpt lat="43.19571" lon="6.65794">
        <ele>21.799999237061</ele>
        <time>2022-01-13T10:21:54Z</time>
      </trkpt>
      <trkpt lat="43.19578" lon="6.65803">
        <ele>18.60000038147</ele>
        <time>2022-01-13T10:22:16Z</time>
      </trkpt>
      <trkpt lat="43.1957" lon="6.65821">
        <ele>15.39999961853</ele>
        <time>2022-01-13T10:22:38Z</time>
      </trkpt>
      <trkpt lat="43.19571" lon="6.65832">
        <ele>12.39999961853</ele>
        <time>2022-01-13T10:22:56Z</time>
      </trkpt>
      <trkpt lat="43.19577" lon="6.65845">
        <ele>13.60000038147</ele>
        <time>2022-01-13T10:23:16Z</time>
      </trkpt>
      <trkpt lat="43.19588" lon="6.65845">
        <ele>16.60000038147</ele>
        <time>2022-01-13T10:23:34Z</time>
      </trkpt>
      <trkpt lat="43.19599" lon="6.65843">
        <ele>20</ele>
        <time>2022-01-13T10:23:58Z</time>
      </trkpt>
      <trkpt lat="43.19608" lon="6.65845">
        <ele>23</ele>
        <time>2022-01-13T10:24:15Z</time>
      </trkpt>
      <trkpt lat="43.19616" lon="6.65854">
        <ele>26</ele>
        <time>2022-01-13T10:24:31Z</time>
      </trkpt>
      <trkpt lat="43.19627" lon="6.65873">
        <ele>27.60000038147</ele>
        <time>2022-01-13T10:24:53Z</time>
      </trkpt>
      <trkpt lat="43.19639" lon="6.65891">
        <ele>29.39999961853</ele>
        <time>2022-01-13T10:25:13Z</time>
      </trkpt>
      <trkpt lat="43.19648" lon="6.65909">
        <ele>30.60000038147</ele>
        <time>2022-01-13T10:25:33Z</time>
      </trkpt>
      <trkpt lat="43.19661" lon="6.65921">
        <ele>32.599998474121</ele>
        <time>2022-01-13T10:25:54Z</time>
      </trkpt>
      <trkpt lat="43.19675" lon="6.65939">
        <ele>35.400001525879</ele>
        <time>2022-01-13T10:26:21Z</time>
      </trkpt>
      <trkpt lat="43.19683" lon="6.65937">
        <ele>38.400001525879</ele>
        <time>2022-01-13T10:26:38Z</time>
      </trkpt>
      <trkpt lat="43.19681" lon="6.65932">
        <ele>39.400001525879</ele>
        <time>2022-01-13T10:27:23Z</time>
      </trkpt>
      <trkpt lat="43.1969" lon="6.65945">
        <ele>39.400001525879</ele>
        <time>2022-01-13T10:27:52Z</time>
      </trkpt>
      <trkpt lat="43.19694" lon="6.65957">
        <ele>39.400001525879</ele>
        <time>2022-01-13T10:28:02Z</time>
      </trkpt>
      <trkpt lat="43.197" lon="6.65994">
        <ele>40.200000762939</ele>
        <time>2022-01-13T10:28:32Z</time>
      </trkpt>
      <trkpt lat="43.19699" lon="6.66021">
        <ele>40.200000762939</ele>
        <time>2022-01-13T10:28:50Z</time>
      </trkpt>
      <trkpt lat="43.19698" lon="6.66052">
        <ele>38.799999237061</ele>
        <time>2022-01-13T10:29:14Z</time>
      </trkpt>
      <trkpt lat="43.19693" lon="6.66068">
        <ele>38</ele>
        <time>2022-01-13T10:29:21Z</time>
      </trkpt>
      <trkpt lat="43.19675" lon="6.66104">
        <ele>36.599998474121</ele>
        <time>2022-01-13T10:29:45Z</time>
      </trkpt>
      <trkpt lat="43.19666" lon="6.66126">
        <ele>35.799999237061</ele>
        <time>2022-01-13T10:30:04Z</time>
      </trkpt>
      <trkpt lat="43.19656" lon="6.66128">
        <ele>33.400001525879</ele>
        <time>2022-01-13T10:30:30Z</time>
      </trkpt>
      <trkpt lat="43.19645" lon="6.66145">
        <ele>30.799999237061</ele>
        <time>2022-01-13T10:30:55Z</time>
      </trkpt>
      <trkpt lat="43.19634" lon="6.66146">
        <ele>27.799999237061</ele>
        <time>2022-01-13T10:31:14Z</time>
      </trkpt>
      <trkpt lat="43.19624" lon="6.66149">
        <ele>24.60000038147</ele>
        <time>2022-01-13T10:31:26Z</time>
      </trkpt>
      <trkpt lat="43.19615" lon="6.66156">
        <ele>22.39999961853</ele>
        <time>2022-01-13T10:31:59Z</time>
      </trkpt>
      <trkpt lat="43.19606" lon="6.66157">
        <ele>19.60000038147</ele>
        <time>2022-01-13T10:32:26Z</time>
      </trkpt>
      <trkpt lat="43.196" lon="6.66165">
        <ele>17.799999237061</ele>
        <time>2022-01-13T10:32:45Z</time>
      </trkpt>
      <trkpt lat="43.19596" lon="6.66173">
        <ele>16.200000762939</ele>
        <time>2022-01-13T10:32:59Z</time>
      </trkpt>
      <trkpt lat="43.19591" lon="6.66175">
        <ele>14.199999809265</ele>
        <time>2022-01-13T10:33:05Z</time>
      </trkpt>
      <trkpt lat="43.19586" lon="6.66194">
        <ele>15.800000190735</ele>
        <time>2022-01-13T10:33:31Z</time>
      </trkpt>
      <trkpt lat="43.1958" lon="6.66199">
        <ele>18.200000762939</ele>
        <time>2022-01-13T10:33:48Z</time>
      </trkpt>
      <trkpt lat="43.19571" lon="6.66219">
        <ele>21.200000762939</ele>
        <time>2022-01-13T10:34:13Z</time>
      </trkpt>
      <trkpt lat="43.19566" lon="6.66244">
        <ele>23.799999237061</ele>
        <time>2022-01-13T10:34:38Z</time>
      </trkpt>
      <trkpt lat="43.19569" lon="6.66258">
        <ele>25.39999961853</ele>
        <time>2022-01-13T10:34:51Z</time>
      </trkpt>
      <trkpt lat="43.19569" lon="6.66275">
        <ele>26.200000762939</ele>
        <time>2022-01-13T10:35:10Z</time>
      </trkpt>
      <trkpt lat="43.19566" lon="6.66303">
        <ele>28</ele>
        <time>2022-01-13T10:35:35Z</time>
      </trkpt>
      <trkpt lat="43.19551" lon="6.6633">
        <ele>27.200000762939</ele>
        <time>2022-01-13T10:36:01Z</time>
      </trkpt>
      <trkpt lat="43.19538" lon="6.66334">
        <ele>25.200000762939</ele>
        <time>2022-01-13T10:36:17Z</time>
      </trkpt>
      <trkpt lat="43.19527" lon="6.66349">
        <ele>23.799999237061</ele>
        <time>2022-01-13T10:36:43Z</time>
      </trkpt>
      <trkpt lat="43.19511" lon="6.66373">
        <ele>23.39999961853</ele>
        <time>2022-01-13T10:37:04Z</time>
      </trkpt>
      <trkpt lat="43.19507" lon="6.66384">
        <ele>23.39999961853</ele>
        <time>2022-01-13T10:37:25Z</time>
      </trkpt>
      <trkpt lat="43.19499" lon="6.66395">
        <ele>20.39999961853</ele>
        <time>2022-01-13T10:37:44Z</time>
      </trkpt>
      <trkpt lat="43.19498" lon="6.6639">
        <ele>17.200000762939</ele>
        <time>2022-01-13T10:38:01Z</time>
      </trkpt>
      <trkpt lat="43.19493" lon="6.66391">
        <ele>15</ele>
        <time>2022-01-13T10:38:22Z</time>
      </trkpt>
      <trkpt lat="43.19488" lon="6.66403">
        <ele>12</ele>
        <time>2022-01-13T10:38:40Z</time>
      </trkpt>
      <trkpt lat="43.19493" lon="6.66407">
        <ele>8.8000001907349</ele>
        <time>2022-01-13T10:38:56Z</time>
      </trkpt>
      <trkpt lat="43.19495" lon="6.66418">
        <ele>7.8000001907349</ele>
        <time>2022-01-13T10:39:18Z</time>
      </trkpt>
      <trkpt lat="43.19501" lon="6.66426">
        <ele>7.8000001907349</ele>
        <time>2022-01-13T10:39:32Z</time>
      </trkpt>
      <trkpt lat="43.1951" lon="6.66422">
        <ele>7.8000001907349</ele>
        <time>2022-01-13T10:39:51Z</time>
      </trkpt>
      <trkpt lat="43.19515" lon="6.66424">
        <ele>8.6000003814697</ele>
        <time>2022-01-13T10:40:09Z</time>
      </trkpt>
      <trkpt lat="43.19508" lon="6.66434">
        <ele>7.8000001907349</ele>
        <time>2022-01-13T10:40:27Z</time>
      </trkpt>
      <trkpt lat="43.19508" lon="6.66442">
        <ele>7.4000000953674</ele>
        <time>2022-01-13T10:40:33Z</time>
      </trkpt>
      <trkpt lat="43.19513" lon="6.66449">
        <ele>8.1999998092651</ele>
        <time>2022-01-13T10:40:46Z</time>
      </trkpt>
      <trkpt lat="43.19524" lon="6.66456">
        <ele>7.4000000953674</ele>
        <time>2022-01-13T10:41:06Z</time>
      </trkpt>
      <trkpt lat="43.19539" lon="6.66466">
        <ele>8.1999998092651</ele>
        <time>2022-01-13T10:41:25Z</time>
      </trkpt>
      <trkpt lat="43.19552" lon="6.66466">
        <ele>11.199999809265</ele>
        <time>2022-01-13T10:41:47Z</time>
      </trkpt>
      <trkpt lat="43.1955" lon="6.66476">
        <ele>14.39999961853</ele>
        <time>2022-01-13T10:42:04Z</time>
      </trkpt>
      <trkpt lat="43.19549" lon="6.6648">
        <ele>15</ele>
        <time>2022-01-13T10:42:09Z</time>
      </trkpt>
      <trkpt lat="43.19546" lon="6.66494">
        <ele>18.200000762939</ele>
        <time>2022-01-13T10:42:26Z</time>
      </trkpt>
      <trkpt lat="43.19535" lon="6.66502">
        <ele>21.200000762939</ele>
        <time>2022-01-13T10:42:43Z</time>
      </trkpt>
      <trkpt lat="43.19526" lon="6.66516">
        <ele>21.799999237061</ele>
        <time>2022-01-13T10:43:04Z</time>
      </trkpt>
      <trkpt lat="43.19517" lon="6.6652">
        <ele>19.60000038147</ele>
        <time>2022-01-13T10:43:30Z</time>
      </trkpt>
      <trkpt lat="43.19511" lon="6.66523">
        <ele>19.200000762939</ele>
        <time>2022-01-13T10:43:41Z</time>
      </trkpt>
      <trkpt lat="43.19511" lon="6.66537">
        <ele>17.60000038147</ele>
        <time>2022-01-13T10:44:01Z</time>
      </trkpt>
      <trkpt lat="43.19515" lon="6.6654">
        <ele>18</ele>
        <time>2022-01-13T10:44:16Z</time>
      </trkpt>
      <trkpt lat="43.19527" lon="6.66538">
        <ele>19.799999237061</ele>
        <time>2022-01-13T10:44:39Z</time>
      </trkpt>
      <trkpt lat="43.19526" lon="6.66552">
        <ele>17.200000762939</ele>
        <time>2022-01-13T10:45:03Z</time>
      </trkpt>
      <trkpt lat="43.19525" lon="6.66569">
        <ele>15.199999809265</ele>
        <time>2022-01-13T10:45:27Z</time>
      </trkpt>
      <trkpt lat="43.19523" lon="6.66571">
        <ele>15.39999961853</ele>
        <time>2022-01-13T10:45:45Z</time>
      </trkpt>
      <trkpt lat="43.19531" lon="6.66574">
        <ele>18.39999961853</ele>
        <time>2022-01-13T10:46:06Z</time>
      </trkpt>
      <trkpt lat="43.1954" lon="6.66582">
        <ele>21.60000038147</ele>
        <time>2022-01-13T10:46:25Z</time>
      </trkpt>
      <trkpt lat="43.19541" lon="6.66594">
        <ele>23.60000038147</ele>
        <time>2022-01-13T10:46:49Z</time>
      </trkpt>
      <trkpt lat="43.19548" lon="6.66609">
        <ele>25.39999961853</ele>
        <time>2022-01-13T10:47:09Z</time>
      </trkpt>
      <trkpt lat="43.19547" lon="6.66622">
        <ele>24.60000038147</ele>
        <time>2022-01-13T10:47:29Z</time>
      </trkpt>
      <trkpt lat="43.19549" lon="6.6664">
        <ele>23.39999961853</ele>
        <time>2022-01-13T10:47:52Z</time>
      </trkpt>
      <trkpt lat="43.19553" lon="6.66658">
        <ele>25.39999961853</ele>
        <time>2022-01-13T10:48:14Z</time>
      </trkpt>
      <trkpt lat="43.19551" lon="6.66673">
        <ele>25.39999961853</ele>
        <time>2022-01-13T10:48:37Z</time>
      </trkpt>
      <trkpt lat="43.19553" lon="6.66684">
        <ele>22.799999237061</ele>
        <time>2022-01-13T10:48:59Z</time>
      </trkpt>
      <trkpt lat="43.19569" lon="6.66685">
        <ele>20.60000038147</ele>
        <time>2022-01-13T10:49:21Z</time>
      </trkpt>
      <trkpt lat="43.19581" lon="6.66698">
        <ele>22.60000038147</ele>
        <time>2022-01-13T10:49:42Z</time>
      </trkpt>
      <trkpt lat="43.19586" lon="6.66723">
        <ele>22.200000762939</ele>
        <time>2022-01-13T10:50:06Z</time>
      </trkpt>
      <trkpt lat="43.19588" lon="6.66736">
        <ele>25.200000762939</ele>
        <time>2022-01-13T10:50:26Z</time>
      </trkpt>
      <trkpt lat="43.19592" lon="6.66751">
        <ele>25.39999961853</ele>
        <time>2022-01-13T10:50:42Z</time>
      </trkpt>
      <trkpt lat="43.19597" lon="6.66768">
        <ele>24.200000762939</ele>
        <time>2022-01-13T10:51:04Z</time>
      </trkpt>
      <trkpt lat="43.196" lon="6.66789">
        <ele>21.200000762939</ele>
        <time>2022-01-13T10:51:24Z</time>
      </trkpt>
      <trkpt lat="43.19604" lon="6.66802">
        <ele>18.200000762939</ele>
        <time>2022-01-13T10:51:44Z</time>
      </trkpt>
      <trkpt lat="43.19612" lon="6.6682">
        <ele>20.799999237061</ele>
        <time>2022-01-13T10:52:12Z</time>
      </trkpt>
      <trkpt lat="43.19598" lon="6.66837">
        <ele>23</ele>
        <time>2022-01-13T10:52:33Z</time>
      </trkpt>
      <trkpt lat="43.1959" lon="6.66849">
        <ele>20.60000038147</ele>
        <time>2022-01-13T10:52:51Z</time>
      </trkpt>
      <trkpt lat="43.19585" lon="6.66854">
        <ele>20.39999961853</ele>
        <time>2022-01-13T10:52:57Z</time>
      </trkpt>
      <trkpt lat="43.19582" lon="6.66877">
        <ele>19.799999237061</ele>
        <time>2022-01-13T10:53:17Z</time>
      </trkpt>
      <trkpt lat="43.19584" lon="6.66901">
        <ele>19.39999961853</ele>
        <time>2022-01-13T10:53:39Z</time>
      </trkpt>
      <trkpt lat="43.19578" lon="6.66915">
        <ele>19.39999961853</ele>
        <time>2022-01-13T10:53:59Z</time>
      </trkpt>
      <trkpt lat="43.19578" lon="6.66917">
        <ele>19.799999237061</ele>
        <time>2022-01-13T10:54:12Z</time>
      </trkpt>
      <trkpt lat="43.19577" lon="6.66928">
        <ele>19.799999237061</ele>
        <time>2022-01-13T10:54:19Z</time>
      </trkpt>
      <trkpt lat="43.19585" lon="6.66945">
        <ele>17.60000038147</ele>
        <time>2022-01-13T10:54:37Z</time>
      </trkpt>
      <trkpt lat="43.19593" lon="6.66947">
        <ele>17.200000762939</ele>
        <time>2022-01-13T10:54:48Z</time>
      </trkpt>
      <trkpt lat="43.19603" lon="6.66954">
        <ele>18.799999237061</ele>
        <time>2022-01-13T10:55:04Z</time>
      </trkpt>
      <trkpt lat="43.19609" lon="6.66953">
        <ele>20.39999961853</ele>
        <time>2022-01-13T10:55:26Z</time>
      </trkpt>
      <trkpt lat="43.19612" lon="6.66956">
        <ele>20.60000038147</ele>
        <time>2022-01-13T10:55:48Z</time>
      </trkpt>
      <trkpt lat="43.19629" lon="6.66964">
        <ele>18.200000762939</ele>
        <time>2022-01-13T10:56:09Z</time>
      </trkpt>
      <trkpt lat="43.19645" lon="6.66976">
        <ele>18.200000762939</ele>
        <time>2022-01-13T10:56:31Z</time>
      </trkpt>
      <trkpt lat="43.19648" lon="6.66999">
        <ele>17.60000038147</ele>
        <time>2022-01-13T10:56:52Z</time>
      </trkpt>
      <trkpt lat="43.19659" lon="6.67007">
        <ele>16.200000762939</ele>
        <time>2022-01-13T10:57:11Z</time>
      </trkpt>
      <trkpt lat="43.19673" lon="6.6702">
        <ele>18.39999961853</ele>
        <time>2022-01-13T10:57:35Z</time>
      </trkpt>
      <trkpt lat="43.19683" lon="6.67035">
        <ele>21.39999961853</ele>
        <time>2022-01-13T10:57:55Z</time>
      </trkpt>
      <trkpt lat="43.19691" lon="6.67058">
        <ele>23.200000762939</ele>
        <time>2022-01-13T10:58:18Z</time>
      </trkpt>
      <trkpt lat="43.19678" lon="6.67086">
        <ele>24</ele>
        <time>2022-01-13T10:58:41Z</time>
      </trkpt>
      <trkpt lat="43.19672" lon="6.67106">
        <ele>23.200000762939</ele>
        <time>2022-01-13T10:58:56Z</time>
      </trkpt>
      <trkpt lat="43.19673" lon="6.67127">
        <ele>22.39999961853</ele>
        <time>2022-01-13T10:59:13Z</time>
      </trkpt>
      <trkpt lat="43.19685" lon="6.67146">
        <ele>24.799999237061</ele>
        <time>2022-01-13T10:59:34Z</time>
      </trkpt>
      <trkpt lat="43.19689" lon="6.67173">
        <ele>24</ele>
        <time>2022-01-13T10:59:55Z</time>
      </trkpt>
      <trkpt lat="43.19684" lon="6.67183">
        <ele>22.200000762939</ele>
        <time>2022-01-13T11:00:05Z</time>
      </trkpt>
      <trkpt lat="43.19685" lon="6.67198">
        <ele>19.799999237061</ele>
        <time>2022-01-13T11:00:21Z</time>
      </trkpt>
      <trkpt lat="43.19687" lon="6.67218">
        <ele>17.60000038147</ele>
        <time>2022-01-13T11:00:38Z</time>
      </trkpt>
      <trkpt lat="43.19695" lon="6.67234">
        <ele>18.799999237061</ele>
        <time>2022-01-13T11:00:58Z</time>
      </trkpt>
      <trkpt lat="43.19696" lon="6.67261">
        <ele>18</ele>
        <time>2022-01-13T11:01:20Z</time>
      </trkpt>
      <trkpt lat="43.19693" lon="6.67273">
        <ele>15.60000038147</ele>
        <time>2022-01-13T11:01:36Z</time>
      </trkpt>
      <trkpt lat="43.19695" lon="6.67284">
        <ele>14.199999809265</ele>
        <time>2022-01-13T11:01:54Z</time>
      </trkpt>
      <trkpt lat="43.19703" lon="6.67297">
        <ele>12.800000190735</ele>
        <time>2022-01-13T11:02:12Z</time>
      </trkpt>
      <trkpt lat="43.197" lon="6.67303">
        <ele>12.60000038147</ele>
        <time>2022-01-13T11:02:28Z</time>
      </trkpt>
      <trkpt lat="43.1971" lon="6.67321">
        <ele>14.60000038147</ele>
        <time>2022-01-13T11:02:52Z</time>
      </trkpt>
      <trkpt lat="43.19705" lon="6.67342">
        <ele>15.199999809265</ele>
        <time>2022-01-13T11:03:12Z</time>
      </trkpt>
      <trkpt lat="43.19701" lon="6.67368">
        <ele>16.200000762939</ele>
        <time>2022-01-13T11:03:36Z</time>
      </trkpt>
      <trkpt lat="43.19698" lon="6.67394">
        <ele>16.60000038147</ele>
        <time>2022-01-13T11:04:01Z</time>
      </trkpt>
      <trkpt lat="43.19694" lon="6.67411">
        <ele>15.199999809265</ele>
        <time>2022-01-13T11:04:25Z</time>
      </trkpt>
      <trkpt lat="43.19692" lon="6.67434">
        <ele>13.39999961853</ele>
        <time>2022-01-13T11:04:46Z</time>
      </trkpt>
      <trkpt lat="43.19681" lon="6.67444">
        <ele>15.60000038147</ele>
        <time>2022-01-13T11:05:10Z</time>
      </trkpt>
      <trkpt lat="43.19675" lon="6.67446">
        <ele>16.39999961853</ele>
        <time>2022-01-13T11:05:23Z</time>
      </trkpt>
      <trkpt lat="43.19659" lon="6.67463">
        <ele>19.60000038147</ele>
        <time>2022-01-13T11:05:48Z</time>
      </trkpt>
      <trkpt lat="43.19642" lon="6.67477">
        <ele>21</ele>
        <time>2022-01-13T11:06:12Z</time>
      </trkpt>
      <trkpt lat="43.19633" lon="6.67481">
        <ele>20.60000038147</ele>
        <time>2022-01-13T11:06:36Z</time>
      </trkpt>
      <trkpt lat="43.19633" lon="6.67481">
        <ele>20.60000038147</ele>
        <time>2022-01-13T11:07:19Z</time>
      </trkpt>
      <trkpt lat="43.1963" lon="6.67487">
        <ele>20.39999961853</ele>
        <time>2022-01-13T11:07:37Z</time>
      </trkpt>
      <trkpt lat="43.19625" lon="6.67506">
        <ele>21.39999961853</ele>
        <time>2022-01-13T11:08:01Z</time>
      </trkpt>
      <trkpt lat="43.19625" lon="6.67523">
        <ele>23.200000762939</ele>
        <time>2022-01-13T11:08:21Z</time>
      </trkpt>
      <trkpt lat="43.19624" lon="6.67525">
        <ele>23.200000762939</ele>
        <time>2022-01-13T11:08:23Z</time>
      </trkpt>
      <trkpt lat="43.19614" lon="6.67535">
        <ele>23</ele>
        <time>2022-01-13T11:08:38Z</time>
      </trkpt>
      <trkpt lat="43.19613" lon="6.67549">
        <ele>24.200000762939</ele>
        <time>2022-01-13T11:08:56Z</time>
      </trkpt>
      <trkpt lat="43.19612" lon="6.67568">
        <ele>26.200000762939</ele>
        <time>2022-01-13T11:09:14Z</time>
      </trkpt>
      <trkpt lat="43.19614" lon="6.67572">
        <ele>25.799999237061</ele>
        <time>2022-01-13T11:09:45Z</time>
      </trkpt>
      <trkpt lat="43.19618" lon="6.67573">
        <ele>25.799999237061</ele>
        <time>2022-01-13T11:10:00Z</time>
      </trkpt>
      <trkpt lat="43.19625" lon="6.67574">
        <ele>28.799999237061</ele>
        <time>2022-01-13T11:10:17Z</time>
      </trkpt>
      <trkpt lat="43.19635" lon="6.6758">
        <ele>29.799999237061</ele>
        <time>2022-01-13T11:10:37Z</time>
      </trkpt>
      <trkpt lat="43.19646" lon="6.67589">
        <ele>30.200000762939</ele>
        <time>2022-01-13T11:10:51Z</time>
      </trkpt>
      <trkpt lat="43.19652" lon="6.67609">
        <ele>30.60000038147</ele>
        <time>2022-01-13T11:11:07Z</time>
      </trkpt>
      <trkpt lat="43.19658" lon="6.67626">
        <ele>33.799999237061</ele>
        <time>2022-01-13T11:11:28Z</time>
      </trkpt>
      <trkpt lat="43.19668" lon="6.67638">
        <ele>33.200000762939</ele>
        <time>2022-01-13T11:11:45Z</time>
      </trkpt>
      <trkpt lat="43.19671" lon="6.67639">
        <ele>33</ele>
        <time>2022-01-13T11:11:48Z</time>
      </trkpt>
      <trkpt lat="43.19678" lon="6.67654">
        <ele>32</ele>
        <time>2022-01-13T11:12:04Z</time>
      </trkpt>
      <trkpt lat="43.19685" lon="6.67665">
        <ele>29.39999961853</ele>
        <time>2022-01-13T11:12:22Z</time>
      </trkpt>
      <trkpt lat="43.19693" lon="6.67678">
        <ele>27</ele>
        <time>2022-01-13T11:12:38Z</time>
      </trkpt>
      <trkpt lat="43.197" lon="6.67686">
        <ele>26</ele>
        <time>2022-01-13T11:12:46Z</time>
      </trkpt>
      <trkpt lat="43.1971" lon="6.67693">
        <ele>24.799999237061</ele>
        <time>2022-01-13T11:13:01Z</time>
      </trkpt>
      <trkpt lat="43.1972" lon="6.67694">
        <ele>22.60000038147</ele>
        <time>2022-01-13T11:13:27Z</time>
      </trkpt>
      <trkpt lat="43.19723" lon="6.67695">
        <ele>21.39999961853</ele>
        <time>2022-01-13T11:13:45Z</time>
      </trkpt>
      <trkpt lat="43.19735" lon="6.67696">
        <ele>18.60000038147</ele>
        <time>2022-01-13T11:14:08Z</time>
      </trkpt>
      <trkpt lat="43.19747" lon="6.677">
        <ele>17</ele>
        <time>2022-01-13T11:14:29Z</time>
      </trkpt>
      <trkpt lat="43.19761" lon="6.67693">
        <ele>14.60000038147</ele>
        <time>2022-01-13T11:14:52Z</time>
      </trkpt>
      <trkpt lat="43.19778" lon="6.67688">
        <ele>12.800000190735</ele>
        <time>2022-01-13T11:15:14Z</time>
      </trkpt>
      <trkpt lat="43.19786" lon="6.67691">
        <ele>12.60000038147</ele>
        <time>2022-01-13T11:15:32Z</time>
      </trkpt>
      <trkpt lat="43.19799" lon="6.67694">
        <ele>11.60000038147</ele>
        <time>2022-01-13T11:15:48Z</time>
      </trkpt>
      <trkpt lat="43.19807" lon="6.67706">
        <ele>12.800000190735</ele>
        <time>2022-01-13T11:16:08Z</time>
      </trkpt>
      <trkpt lat="43.1981" lon="6.67709">
        <ele>12.39999961853</ele>
        <time>2022-01-13T11:16:12Z</time>
      </trkpt>
      <trkpt lat="43.19814" lon="6.67715">
        <ele>12.199999809265</ele>
        <time>2022-01-13T11:16:17Z</time>
      </trkpt>
      <trkpt lat="43.19816" lon="6.67721">
        <ele>12.199999809265</ele>
        <time>2022-01-13T11:16:22Z</time>
      </trkpt>
      <trkpt lat="43.19823" lon="6.67729">
        <ele>13.199999809265</ele>
        <time>2022-01-13T11:16:37Z</time>
      </trkpt>
      <trkpt lat="43.1983" lon="6.67751">
        <ele>12.39999961853</ele>
        <time>2022-01-13T11:16:55Z</time>
      </trkpt>
      <trkpt lat="43.19836" lon="6.67767">
        <ele>12.800000190735</ele>
        <time>2022-01-13T11:17:15Z</time>
      </trkpt>
      <trkpt lat="43.19843" lon="6.67776">
        <ele>15.39999961853</ele>
        <time>2022-01-13T11:17:33Z</time>
      </trkpt>
      <trkpt lat="43.19853" lon="6.67791">
        <ele>17.799999237061</ele>
        <time>2022-01-13T11:17:54Z</time>
      </trkpt>
      <trkpt lat="43.19854" lon="6.67804">
        <ele>15.60000038147</ele>
        <time>2022-01-13T11:18:12Z</time>
      </trkpt>
      <trkpt lat="43.1985" lon="6.6781">
        <ele>13.800000190735</ele>
        <time>2022-01-13T11:18:26Z</time>
      </trkpt>
      <trkpt lat="43.19849" lon="6.67816">
        <ele>12.800000190735</ele>
        <time>2022-01-13T11:18:33Z</time>
      </trkpt>
      <trkpt lat="43.1985" lon="6.67819">
        <ele>12.39999961853</ele>
        <time>2022-01-13T11:18:37Z</time>
      </trkpt>
      <trkpt lat="43.19859" lon="6.67817">
        <ele>12.60000038147</ele>
        <time>2022-01-13T11:19:05Z</time>
      </trkpt>
      <trkpt lat="43.1987" lon="6.67818">
        <ele>14.800000190735</ele>
        <time>2022-01-13T11:19:23Z</time>
      </trkpt>
      <trkpt lat="43.19881" lon="6.67823">
        <ele>18</ele>
        <time>2022-01-13T11:19:43Z</time>
      </trkpt>
      <trkpt lat="43.19887" lon="6.67834">
        <ele>21</ele>
        <time>2022-01-13T11:20:05Z</time>
      </trkpt>
      <trkpt lat="43.19892" lon="6.67838">
        <ele>24.200000762939</ele>
        <time>2022-01-13T11:20:21Z</time>
      </trkpt>
      <trkpt lat="43.19901" lon="6.67845">
        <ele>27.200000762939</ele>
        <time>2022-01-13T11:20:41Z</time>
      </trkpt>
      <trkpt lat="43.1991" lon="6.67851">
        <ele>28.39999961853</ele>
        <time>2022-01-13T11:21:05Z</time>
      </trkpt>
      <trkpt lat="43.19913" lon="6.67864">
        <ele>26.39999961853</ele>
        <time>2022-01-13T11:21:25Z</time>
      </trkpt>
      <trkpt lat="43.19916" lon="6.67881">
        <ele>24</ele>
        <time>2022-01-13T11:21:48Z</time>
      </trkpt>
      <trkpt lat="43.19927" lon="6.67903">
        <ele>23</ele>
        <time>2022-01-13T11:22:12Z</time>
      </trkpt>
      <trkpt lat="43.19936" lon="6.67923">
        <ele>23.799999237061</ele>
        <time>2022-01-13T11:22:34Z</time>
      </trkpt>
      <trkpt lat="43.19939" lon="6.67934">
        <ele>23.39999961853</ele>
        <time>2022-01-13T11:22:43Z</time>
      </trkpt>
      <trkpt lat="43.19939" lon="6.67952">
        <ele>22.799999237061</ele>
        <time>2022-01-13T11:23:01Z</time>
      </trkpt>
      <trkpt lat="43.1994" lon="6.67972">
        <ele>20.60000038147</ele>
        <time>2022-01-13T11:23:23Z</time>
      </trkpt>
      <trkpt lat="43.19948" lon="6.68001">
        <ele>21</ele>
        <time>2022-01-13T11:23:50Z</time>
      </trkpt>
      <trkpt lat="43.1996" lon="6.6802">
        <ele>21.200000762939</ele>
        <time>2022-01-13T11:24:11Z</time>
      </trkpt>
      <trkpt lat="43.19963" lon="6.68039">
        <ele>23</ele>
        <time>2022-01-13T11:24:28Z</time>
      </trkpt>
      <trkpt lat="43.19971" lon="6.68048">
        <ele>22.39999961853</ele>
        <time>2022-01-13T11:24:43Z</time>
      </trkpt>
      <trkpt lat="43.19978" lon="6.68053">
        <ele>24</ele>
        <time>2022-01-13T11:25:04Z</time>
      </trkpt>
      <trkpt lat="43.1998" lon="6.68053">
        <ele>24.200000762939</ele>
        <time>2022-01-13T11:25:47Z</time>
      </trkpt>
      <trkpt lat="43.19981" lon="6.68054">
        <ele>24.200000762939</ele>
        <time>2022-01-13T11:26:39Z</time>
      </trkpt>
      <trkpt lat="43.19981" lon="6.68055">
        <ele>24.39999961853</ele>
        <time>2022-01-13T11:27:06Z</time>
      </trkpt>
      <trkpt lat="43.19983" lon="6.68063">
        <ele>24.39999961853</ele>
        <time>2022-01-13T11:27:48Z</time>
      </trkpt>
      <trkpt lat="43.19983" lon="6.68077">
        <ele>22.60000038147</ele>
        <time>2022-01-13T11:28:08Z</time>
      </trkpt>
      <trkpt lat="43.19984" lon="6.6809">
        <ele>20.39999961853</ele>
        <time>2022-01-13T11:28:23Z</time>
      </trkpt>
      <trkpt lat="43.19991" lon="6.68088">
        <ele>19</ele>
        <time>2022-01-13T11:28:42Z</time>
      </trkpt>
      <trkpt lat="43.19992" lon="6.68081">
        <ele>20</ele>
        <time>2022-01-13T11:29:07Z</time>
      </trkpt>
      <trkpt lat="43.19992" lon="6.68074">
        <ele>21.200000762939</ele>
        <time>2022-01-13T11:29:23Z</time>
      </trkpt>
      <trkpt lat="43.19991" lon="6.68075">
        <ele>21.200000762939</ele>
        <time>2022-01-13T11:29:59Z</time>
      </trkpt>
      <trkpt lat="43.19986" lon="6.68069">
        <ele>21.60000038147</ele>
        <time>2022-01-13T11:30:12Z</time>
      </trkpt>
      <trkpt lat="43.19979" lon="6.68068">
        <ele>20</ele>
        <time>2022-01-13T11:30:35Z</time>
      </trkpt>
      <trkpt lat="43.19975" lon="6.68067">
        <ele>19.200000762939</ele>
        <time>2022-01-13T11:30:55Z</time>
      </trkpt>
      <trkpt lat="43.19972" lon="6.68069">
        <ele>16.799999237061</ele>
        <time>2022-01-13T11:31:21Z</time>
      </trkpt>
      <trkpt lat="43.19967" lon="6.68073">
        <ele>15.800000190735</ele>
        <time>2022-01-13T11:31:45Z</time>
      </trkpt>
      <trkpt lat="43.19965" lon="6.68078">
        <ele>14.199999809265</ele>
        <time>2022-01-13T11:32:09Z</time>
      </trkpt>
      <trkpt lat="43.19964" lon="6.6808">
        <ele>12.800000190735</ele>
        <time>2022-01-13T11:32:31Z</time>
      </trkpt>
      <trkpt lat="43.19962" lon="6.6808">
        <ele>12.199999809265</ele>
        <time>2022-01-13T11:32:55Z</time>
      </trkpt>
      <trkpt lat="43.19962" lon="6.68081">
        <ele>11.60000038147</ele>
        <time>2022-01-13T11:33:26Z</time>
      </trkpt>
      <trkpt lat="43.19965" lon="6.68079">
        <ele>12.199999809265</ele>
        <time>2022-01-13T11:34:08Z</time>
      </trkpt>
      <trkpt lat="43.19964" lon="6.68079">
        <ele>11.39999961853</ele>
        <time>2022-01-13T11:34:23Z</time>
      </trkpt>
      <trkpt lat="43.19964" lon="6.68079">
        <ele>11</ele>
        <time>2022-01-13T11:35:31Z</time>
      </trkpt>
      <trkpt lat="43.19966" lon="6.68076">
        <ele>10.800000190735</ele>
        <time>2022-01-13T11:36:51Z</time>
      </trkpt>
      <trkpt lat="43.19966" lon="6.68078">
        <ele>11</ele>
        <time>2022-01-13T11:37:37Z</time>
      </trkpt>
      <trkpt lat="43.19964" lon="6.68078">
        <ele>10.800000190735</ele>
        <time>2022-01-13T11:38:36Z</time>
      </trkpt>
      <trkpt lat="43.19964" lon="6.68078">
        <ele>10.60000038147</ele>
        <time>2022-01-13T11:39:21Z</time>
      </trkpt>
      <trkpt lat="43.19964" lon="6.68077">
        <ele>10.199999809265</ele>
        <time>2022-01-13T11:40:45Z</time>
      </trkpt>
      <trkpt lat="43.19963" lon="6.68077">
        <ele>10.199999809265</ele>
        <time>2022-01-13T11:42:08Z</time>
      </trkpt>
      <trkpt lat="43.19963" lon="6.68082">
        <ele>10.39999961853</ele>
        <time>2022-01-13T11:43:29Z</time>
      </trkpt>
      <trkpt lat="43.19963" lon="6.68082">
        <ele>10.800000190735</ele>
        <time>2022-01-13T11:44:34Z</time>
      </trkpt>
      <trkpt lat="43.19958" lon="6.68073">
        <ele>10.60000038147</ele>
        <time>2022-01-13T11:45:44Z</time>
      </trkpt>
      <trkpt lat="43.19963" lon="6.68076">
        <ele>11.199999809265</ele>
        <time>2022-01-13T11:46:56Z</time>
      </trkpt>
      <trkpt lat="43.19964" lon="6.6808">
        <ele>11.199999809265</ele>
        <time>2022-01-13T11:48:05Z</time>
      </trkpt>
      <trkpt lat="43.19964" lon="6.68077">
        <ele>11.199999809265</ele>
        <time>2022-01-13T11:49:10Z</time>
      </trkpt>
      <trkpt lat="43.19966" lon="6.68078">
        <ele>11.199999809265</ele>
        <time>2022-01-13T11:50:18Z</time>
      </trkpt>
      <trkpt lat="43.19964" lon="6.68076">
        <ele>11.39999961853</ele>
        <time>2022-01-13T11:51:25Z</time>
      </trkpt>
      <trkpt lat="43.19964" lon="6.68077">
        <ele>11.60000038147</ele>
        <time>2022-01-13T11:52:57Z</time>
      </trkpt>
      <trkpt lat="43.19961" lon="6.68075">
        <ele>11.800000190735</ele>
        <time>2022-01-13T11:54:16Z</time>
      </trkpt>
      <trkpt lat="43.19962" lon="6.68074">
        <ele>11.60000038147</ele>
        <time>2022-01-13T11:55:47Z</time>
      </trkpt>
      <trkpt lat="43.19961" lon="6.68072">
        <ele>11.39999961853</ele>
        <time>2022-01-13T11:57:15Z</time>
      </trkpt>
      <trkpt lat="43.19962" lon="6.68073">
        <ele>11.800000190735</ele>
        <time>2022-01-13T11:59:05Z</time>
      </trkpt>
      <trkpt lat="43.1996" lon="6.68069">
        <ele>11.60000038147</ele>
        <time>2022-01-13T12:00:04Z</time>
      </trkpt>
      <trkpt lat="43.1996" lon="6.68067">
        <ele>11.39999961853</ele>
        <time>2022-01-13T12:01:27Z</time>
      </trkpt>
      <trkpt lat="43.19963" lon="6.68073">
        <ele>11.39999961853</ele>
        <time>2022-01-13T12:02:59Z</time>
      </trkpt>
      <trkpt lat="43.19963" lon="6.68074">
        <ele>11.39999961853</ele>
        <time>2022-01-13T12:04:07Z</time>
      </trkpt>
      <trkpt lat="43.19962" lon="6.68075">
        <ele>11.39999961853</ele>
        <time>2022-01-13T12:06:35Z</time>
      </trkpt>
      <trkpt lat="43.19964" lon="6.68074">
        <ele>11.39999961853</ele>
        <time>2022-01-13T12:08:50Z</time>
      </trkpt>
      <trkpt lat="43.19963" lon="6.68075">
        <ele>12.39999961853</ele>
        <time>2022-01-13T12:10:11Z</time>
      </trkpt>
      <trkpt lat="43.19967" lon="6.68077">
        <ele>12.39999961853</ele>
        <time>2022-01-13T12:10:47Z</time>
      </trkpt>
      <trkpt lat="43.19973" lon="6.68068">
        <ele>15.60000038147</ele>
        <time>2022-01-13T12:11:11Z</time>
      </trkpt>
      <trkpt lat="43.19978" lon="6.68067">
        <ele>17.60000038147</ele>
        <time>2022-01-13T12:11:32Z</time>
      </trkpt>
      <trkpt lat="43.19986" lon="6.68066">
        <ele>20.39999961853</ele>
        <time>2022-01-13T12:11:50Z</time>
      </trkpt>
      <trkpt lat="43.19986" lon="6.68057">
        <ele>23.39999961853</ele>
        <time>2022-01-13T12:12:07Z</time>
      </trkpt>
      <trkpt lat="43.19979" lon="6.68052">
        <ele>25</ele>
        <time>2022-01-13T12:12:26Z</time>
      </trkpt>
      <trkpt lat="43.19968" lon="6.68041">
        <ele>23.60000038147</ele>
        <time>2022-01-13T12:12:49Z</time>
      </trkpt>
      <trkpt lat="43.19963" lon="6.68016">
        <ele>24</ele>
        <time>2022-01-13T12:13:12Z</time>
      </trkpt>
      <trkpt lat="43.19951" lon="6.67991">
        <ele>22.200000762939</ele>
        <time>2022-01-13T12:13:39Z</time>
      </trkpt>
      <trkpt lat="43.19945" lon="6.67961">
        <ele>21.39999961853</ele>
        <time>2022-01-13T12:14:04Z</time>
      </trkpt>
      <trkpt lat="43.19945" lon="6.67945">
        <ele>22.200000762939</ele>
        <time>2022-01-13T12:14:23Z</time>
      </trkpt>
      <trkpt lat="43.19945" lon="6.67943">
        <ele>24.200000762939</ele>
        <time>2022-01-13T12:15:00Z</time>
      </trkpt>
      <trkpt lat="43.19944" lon="6.67943">
        <ele>24.200000762939</ele>
        <time>2022-01-13T12:15:45Z</time>
      </trkpt>
      <trkpt lat="43.19944" lon="6.67943">
        <ele>24.60000038147</ele>
        <time>2022-01-13T12:16:20Z</time>
      </trkpt>
      <trkpt lat="43.19942" lon="6.67921">
        <ele>24.799999237061</ele>
        <time>2022-01-13T12:16:43Z</time>
      </trkpt>
      <trkpt lat="43.1994" lon="6.67913">
        <ele>25.200000762939</ele>
        <time>2022-01-13T12:16:50Z</time>
      </trkpt>
      <trkpt lat="43.19931" lon="6.67901">
        <ele>25.200000762939</ele>
        <time>2022-01-13T12:17:04Z</time>
      </trkpt>
      <trkpt lat="43.1992" lon="6.67874">
        <ele>25.200000762939</ele>
        <time>2022-01-13T12:17:28Z</time>
      </trkpt>
      <trkpt lat="43.19914" lon="6.67855">
        <ele>28.200000762939</ele>
        <time>2022-01-13T12:17:47Z</time>
      </trkpt>
      <trkpt lat="43.199" lon="6.67843">
        <ele>29.60000038147</ele>
        <time>2022-01-13T12:18:09Z</time>
      </trkpt>
      <trkpt lat="43.19892" lon="6.67837">
        <ele>26.60000038147</ele>
        <time>2022-01-13T12:18:31Z</time>
      </trkpt>
      <trkpt lat="43.19887" lon="6.67827">
        <ele>23.39999961853</ele>
        <time>2022-01-13T12:18:43Z</time>
      </trkpt>
      <trkpt lat="43.19875" lon="6.67819">
        <ele>20.39999961853</ele>
        <time>2022-01-13T12:19:02Z</time>
      </trkpt>
      <trkpt lat="43.19865" lon="6.67817">
        <ele>17.39999961853</ele>
        <time>2022-01-13T12:19:18Z</time>
      </trkpt>
      <trkpt lat="43.19856" lon="6.67815">
        <ele>14.39999961853</ele>
        <time>2022-01-13T12:19:37Z</time>
      </trkpt>
      <trkpt lat="43.19858" lon="6.67803">
        <ele>13</ele>
        <time>2022-01-13T12:19:53Z</time>
      </trkpt>
      <trkpt lat="43.19861" lon="6.6779">
        <ele>15.60000038147</ele>
        <time>2022-01-13T12:20:13Z</time>
      </trkpt>
      <trkpt lat="43.19853" lon="6.67776">
        <ele>18.799999237061</ele>
        <time>2022-01-13T12:20:30Z</time>
      </trkpt>
      <trkpt lat="43.19843" lon="6.67766">
        <ele>18.39999961853</ele>
        <time>2022-01-13T12:20:49Z</time>
      </trkpt>
      <trkpt lat="43.19837" lon="6.67755">
        <ele>15.60000038147</ele>
        <time>2022-01-13T12:21:04Z</time>
      </trkpt>
      <trkpt lat="43.19832" lon="6.67733">
        <ele>13.800000190735</ele>
        <time>2022-01-13T12:21:22Z</time>
      </trkpt>
      <trkpt lat="43.19819" lon="6.67714">
        <ele>14.39999961853</ele>
        <time>2022-01-13T12:21:43Z</time>
      </trkpt>
      <trkpt lat="43.19805" lon="6.67693">
        <ele>13.39999961853</ele>
        <time>2022-01-13T12:22:06Z</time>
      </trkpt>
      <trkpt lat="43.19794" lon="6.67688">
        <ele>13.199999809265</ele>
        <time>2022-01-13T12:22:24Z</time>
      </trkpt>
      <trkpt lat="43.1977" lon="6.67691">
        <ele>14</ele>
        <time>2022-01-13T12:22:47Z</time>
      </trkpt>
      <trkpt lat="43.19752" lon="6.67699">
        <ele>16.200000762939</ele>
        <time>2022-01-13T12:23:11Z</time>
      </trkpt>
      <trkpt lat="43.19735" lon="6.67691">
        <ele>19.200000762939</ele>
        <time>2022-01-13T12:23:34Z</time>
      </trkpt>
      <trkpt lat="43.19716" lon="6.67695">
        <ele>21.200000762939</ele>
        <time>2022-01-13T12:23:56Z</time>
      </trkpt>
      <trkpt lat="43.19711" lon="6.67691">
        <ele>24.39999961853</ele>
        <time>2022-01-13T12:24:11Z</time>
      </trkpt>
      <trkpt lat="43.19699" lon="6.67665">
        <ele>26.799999237061</ele>
        <time>2022-01-13T12:24:37Z</time>
      </trkpt>
      <trkpt lat="43.19689" lon="6.6765">
        <ele>29.799999237061</ele>
        <time>2022-01-13T12:24:56Z</time>
      </trkpt>
      <trkpt lat="43.19678" lon="6.67636">
        <ele>33</ele>
        <time>2022-01-13T12:25:15Z</time>
      </trkpt>
      <trkpt lat="43.1966" lon="6.67623">
        <ele>35</ele>
        <time>2022-01-13T12:25:39Z</time>
      </trkpt>
      <trkpt lat="43.19651" lon="6.6761">
        <ele>33.599998474121</ele>
        <time>2022-01-13T12:26:03Z</time>
      </trkpt>
      <trkpt lat="43.19647" lon="6.67587">
        <ele>31.799999237061</ele>
        <time>2022-01-13T12:26:25Z</time>
      </trkpt>
      <trkpt lat="43.19633" lon="6.67582">
        <ele>31.60000038147</ele>
        <time>2022-01-13T12:26:41Z</time>
      </trkpt>
      <trkpt lat="43.19632" lon="6.67582">
        <ele>31.39999961853</ele>
        <time>2022-01-13T12:26:42Z</time>
      </trkpt>
      <trkpt lat="43.19624" lon="6.67576">
        <ele>31</ele>
        <time>2022-01-13T12:26:57Z</time>
      </trkpt>
      <trkpt lat="43.19618" lon="6.67577">
        <ele>29.799999237061</ele>
        <time>2022-01-13T12:27:16Z</time>
      </trkpt>
      <trkpt lat="43.19612" lon="6.67571">
        <ele>28</ele>
        <time>2022-01-13T12:27:28Z</time>
      </trkpt>
      <trkpt lat="43.19611" lon="6.67549">
        <ele>28</ele>
        <time>2022-01-13T12:27:47Z</time>
      </trkpt>
      <trkpt lat="43.19615" lon="6.67534">
        <ele>25.39999961853</ele>
        <time>2022-01-13T12:28:08Z</time>
      </trkpt>
      <trkpt lat="43.19622" lon="6.67516">
        <ele>25.60000038147</ele>
        <time>2022-01-13T12:28:30Z</time>
      </trkpt>
      <trkpt lat="43.19624" lon="6.67501">
        <ele>24.39999961853</ele>
        <time>2022-01-13T12:28:48Z</time>
      </trkpt>
      <trkpt lat="43.1963" lon="6.67491">
        <ele>22</ele>
        <time>2022-01-13T12:29:01Z</time>
      </trkpt>
      <trkpt lat="43.19646" lon="6.67475">
        <ele>22.39999961853</ele>
        <time>2022-01-13T12:29:23Z</time>
      </trkpt>
      <trkpt lat="43.1967" lon="6.67461">
        <ele>22</ele>
        <time>2022-01-13T12:29:48Z</time>
      </trkpt>
      <trkpt lat="43.19676" lon="6.67449">
        <ele>21.60000038147</ele>
        <time>2022-01-13T12:30:02Z</time>
      </trkpt>
      <trkpt lat="43.19685" lon="6.67435">
        <ele>19.799999237061</ele>
        <time>2022-01-13T12:30:18Z</time>
      </trkpt>
      <trkpt lat="43.19698" lon="6.67422">
        <ele>16.60000038147</ele>
        <time>2022-01-13T12:30:35Z</time>
      </trkpt>
      <trkpt lat="43.19698" lon="6.67401">
        <ele>17</ele>
        <time>2022-01-13T12:30:57Z</time>
      </trkpt>
      <trkpt lat="43.19704" lon="6.67378">
        <ele>19.39999961853</ele>
        <time>2022-01-13T12:31:18Z</time>
      </trkpt>
      <trkpt lat="43.19709" lon="6.67356">
        <ele>19.39999961853</ele>
        <time>2022-01-13T12:31:39Z</time>
      </trkpt>
      <trkpt lat="43.19712" lon="6.67331">
        <ele>19.39999961853</ele>
        <time>2022-01-13T12:32:01Z</time>
      </trkpt>
      <trkpt lat="43.19714" lon="6.67306">
        <ele>18</ele>
        <time>2022-01-13T12:32:23Z</time>
      </trkpt>
      <trkpt lat="43.19712" lon="6.67287">
        <ele>16.60000038147</ele>
        <time>2022-01-13T12:32:40Z</time>
      </trkpt>
      <trkpt lat="43.19705" lon="6.67279">
        <ele>16</ele>
        <time>2022-01-13T12:32:51Z</time>
      </trkpt>
      <trkpt lat="43.197" lon="6.67262">
        <ele>16.799999237061</ele>
        <time>2022-01-13T12:33:09Z</time>
      </trkpt>
      <trkpt lat="43.19701" lon="6.67243">
        <ele>19.799999237061</ele>
        <time>2022-01-13T12:33:28Z</time>
      </trkpt>
      <trkpt lat="43.19697" lon="6.67221">
        <ele>22.60000038147</ele>
        <time>2022-01-13T12:33:53Z</time>
      </trkpt>
      <trkpt lat="43.19695" lon="6.67215">
        <ele>22.200000762939</ele>
        <time>2022-01-13T12:33:58Z</time>
      </trkpt>
      <trkpt lat="43.19688" lon="6.67184">
        <ele>21.60000038147</ele>
        <time>2022-01-13T12:34:24Z</time>
      </trkpt>
      <trkpt lat="43.19691" lon="6.67165">
        <ele>24.60000038147</ele>
        <time>2022-01-13T12:34:45Z</time>
      </trkpt>
      <trkpt lat="43.19683" lon="6.6714">
        <ele>27.200000762939</ele>
        <time>2022-01-13T12:35:06Z</time>
      </trkpt>
      <trkpt lat="43.19673" lon="6.67118">
        <ele>26.200000762939</ele>
        <time>2022-01-13T12:35:26Z</time>
      </trkpt>
      <trkpt lat="43.19679" lon="6.67089">
        <ele>25.799999237061</ele>
        <time>2022-01-13T12:35:49Z</time>
      </trkpt>
      <trkpt lat="43.19688" lon="6.67071">
        <ele>26.60000038147</ele>
        <time>2022-01-13T12:36:04Z</time>
      </trkpt>
      <trkpt lat="43.19684" lon="6.67039">
        <ele>25.799999237061</ele>
        <time>2022-01-13T12:36:27Z</time>
      </trkpt>
      <trkpt lat="43.1967" lon="6.67013">
        <ele>22.799999237061</ele>
        <time>2022-01-13T12:36:51Z</time>
      </trkpt>
      <trkpt lat="43.19662" lon="6.67007">
        <ele>19.60000038147</ele>
        <time>2022-01-13T12:37:06Z</time>
      </trkpt>
      <trkpt lat="43.19651" lon="6.66988">
        <ele>20</ele>
        <time>2022-01-13T12:37:29Z</time>
      </trkpt>
      <trkpt lat="43.19638" lon="6.66971">
        <ele>21.39999961853</ele>
        <time>2022-01-13T12:37:52Z</time>
      </trkpt>
      <trkpt lat="43.19633" lon="6.66972">
        <ele>21.60000038147</ele>
        <time>2022-01-13T12:37:57Z</time>
      </trkpt>
      <trkpt lat="43.19616" lon="6.66964">
        <ele>21.799999237061</ele>
        <time>2022-01-13T12:38:13Z</time>
      </trkpt>
      <trkpt lat="43.19608" lon="6.66959">
        <ele>24.200000762939</ele>
        <time>2022-01-13T12:38:36Z</time>
      </trkpt>
      <trkpt lat="43.196" lon="6.6696">
        <ele>24.39999961853</ele>
        <time>2022-01-13T12:38:57Z</time>
      </trkpt>
      <trkpt lat="43.19593" lon="6.66955">
        <ele>23.60000038147</ele>
        <time>2022-01-13T12:39:08Z</time>
      </trkpt>
      <trkpt lat="43.19584" lon="6.66942">
        <ele>21.200000762939</ele>
        <time>2022-01-13T12:39:26Z</time>
      </trkpt>
      <trkpt lat="43.1958" lon="6.6692">
        <ele>21.39999961853</ele>
        <time>2022-01-13T12:39:45Z</time>
      </trkpt>
      <trkpt lat="43.19587" lon="6.66895">
        <ele>22.200000762939</ele>
        <time>2022-01-13T12:40:05Z</time>
      </trkpt>
      <trkpt lat="43.19581" lon="6.66864">
        <ele>22.60000038147</ele>
        <time>2022-01-13T12:40:31Z</time>
      </trkpt>
      <trkpt lat="43.19576" lon="6.66867">
        <ele>21</ele>
        <time>2022-01-13T12:40:51Z</time>
      </trkpt>
      <trkpt lat="43.19578" lon="6.66862">
        <ele>21.39999961853</ele>
        <time>2022-01-13T12:41:26Z</time>
      </trkpt>
      <trkpt lat="43.19585" lon="6.66856">
        <ele>23</ele>
        <time>2022-01-13T12:41:48Z</time>
      </trkpt>
      <trkpt lat="43.19596" lon="6.66847">
        <ele>23.39999961853</ele>
        <time>2022-01-13T12:42:00Z</time>
      </trkpt>
      <trkpt lat="43.19611" lon="6.66832">
        <ele>25.200000762939</ele>
        <time>2022-01-13T12:42:23Z</time>
      </trkpt>
      <trkpt lat="43.1961" lon="6.66812">
        <ele>24.60000038147</ele>
        <time>2022-01-13T12:42:47Z</time>
      </trkpt>
      <trkpt lat="43.19605" lon="6.668">
        <ele>21.60000038147</ele>
        <time>2022-01-13T12:43:01Z</time>
      </trkpt>
      <trkpt lat="43.19602" lon="6.6678">
        <ele>22</ele>
        <time>2022-01-13T12:43:19Z</time>
      </trkpt>
      <trkpt lat="43.19598" lon="6.66764">
        <ele>25</ele>
        <time>2022-01-13T12:43:37Z</time>
      </trkpt>
      <trkpt lat="43.1959" lon="6.66751">
        <ele>28.200000762939</ele>
        <time>2022-01-13T12:43:53Z</time>
      </trkpt>
      <trkpt lat="43.19586" lon="6.66721">
        <ele>27.799999237061</ele>
        <time>2022-01-13T12:44:19Z</time>
      </trkpt>
      <trkpt lat="43.19578" lon="6.66693">
        <ele>25.200000762939</ele>
        <time>2022-01-13T12:44:43Z</time>
      </trkpt>
      <trkpt lat="43.19563" lon="6.66684">
        <ele>24.60000038147</ele>
        <time>2022-01-13T12:45:02Z</time>
      </trkpt>
      <trkpt lat="43.19553" lon="6.66674">
        <ele>25.799999237061</ele>
        <time>2022-01-13T12:45:24Z</time>
      </trkpt>
      <trkpt lat="43.19556" lon="6.6666">
        <ele>29</ele>
        <time>2022-01-13T12:45:41Z</time>
      </trkpt>
      <trkpt lat="43.19551" lon="6.66636">
        <ele>28</ele>
        <time>2022-01-13T12:46:08Z</time>
      </trkpt>
      <trkpt lat="43.19546" lon="6.66614">
        <ele>27.60000038147</ele>
        <time>2022-01-13T12:46:31Z</time>
      </trkpt>
      <trkpt lat="43.19542" lon="6.666">
        <ele>28.799999237061</ele>
        <time>2022-01-13T12:46:51Z</time>
      </trkpt>
      <trkpt lat="43.19536" lon="6.66589">
        <ele>27</ele>
        <time>2022-01-13T12:47:09Z</time>
      </trkpt>
      <trkpt lat="43.19535" lon="6.66574">
        <ele>24.799999237061</ele>
        <time>2022-01-13T12:47:29Z</time>
      </trkpt>
      <trkpt lat="43.19528" lon="6.66572">
        <ele>21.60000038147</ele>
        <time>2022-01-13T12:47:45Z</time>
      </trkpt>
      <trkpt lat="43.19524" lon="6.66565">
        <ele>19.60000038147</ele>
        <time>2022-01-13T12:47:58Z</time>
      </trkpt>
      <trkpt lat="43.19526" lon="6.66545">
        <ele>18.60000038147</ele>
        <time>2022-01-13T12:48:19Z</time>
      </trkpt>
      <trkpt lat="43.19523" lon="6.66541">
        <ele>21.799999237061</ele>
        <time>2022-01-13T12:48:31Z</time>
      </trkpt>
      <trkpt lat="43.19512" lon="6.66543">
        <ele>22.799999237061</ele>
        <time>2022-01-13T12:48:51Z</time>
      </trkpt>
      <trkpt lat="43.19507" lon="6.66533">
        <ele>21</ele>
        <time>2022-01-13T12:49:11Z</time>
      </trkpt>
      <trkpt lat="43.19516" lon="6.66522">
        <ele>20.39999961853</ele>
        <time>2022-01-13T12:49:32Z</time>
      </trkpt>
      <trkpt lat="43.19524" lon="6.66516">
        <ele>23.60000038147</ele>
        <time>2022-01-13T12:49:45Z</time>
      </trkpt>
      <trkpt lat="43.19543" lon="6.66498">
        <ele>24.799999237061</ele>
        <time>2022-01-13T12:50:08Z</time>
      </trkpt>
      <trkpt lat="43.19551" lon="6.66487">
        <ele>21.799999237061</ele>
        <time>2022-01-13T12:50:26Z</time>
      </trkpt>
      <trkpt lat="43.19552" lon="6.66483">
        <ele>20.60000038147</ele>
        <time>2022-01-13T12:50:32Z</time>
      </trkpt>
      <trkpt lat="43.19549" lon="6.66464">
        <ele>17.200000762939</ele>
        <time>2022-01-13T12:50:48Z</time>
      </trkpt>
      <trkpt lat="43.19538" lon="6.66463">
        <ele>14.199999809265</ele>
        <time>2022-01-13T12:51:03Z</time>
      </trkpt>
      <trkpt lat="43.19531" lon="6.66462">
        <ele>13.199999809265</ele>
        <time>2022-01-13T12:51:09Z</time>
      </trkpt>
      <trkpt lat="43.19516" lon="6.66458">
        <ele>11</ele>
        <time>2022-01-13T12:51:28Z</time>
      </trkpt>
      <trkpt lat="43.19509" lon="6.6645">
        <ele>11.60000038147</ele>
        <time>2022-01-13T12:51:43Z</time>
      </trkpt>
      <trkpt lat="43.1951" lon="6.66432">
        <ele>11.60000038147</ele>
        <time>2022-01-13T12:52:00Z</time>
      </trkpt>
      <trkpt lat="43.19507" lon="6.66428">
        <ele>12.60000038147</ele>
        <time>2022-01-13T12:52:23Z</time>
      </trkpt>
      <trkpt lat="43.19502" lon="6.66429">
        <ele>11.800000190735</ele>
        <time>2022-01-13T12:52:35Z</time>
      </trkpt>
      <trkpt lat="43.195" lon="6.66424">
        <ele>11.39999961853</ele>
        <time>2022-01-13T12:52:46Z</time>
      </trkpt>
      <trkpt lat="43.19498" lon="6.66419">
        <ele>11.39999961853</ele>
        <time>2022-01-13T12:52:50Z</time>
      </trkpt>
      <trkpt lat="43.19492" lon="6.66403">
        <ele>11.800000190735</ele>
        <time>2022-01-13T12:53:07Z</time>
      </trkpt>
      <trkpt lat="43.19493" lon="6.66392">
        <ele>13.199999809265</ele>
        <time>2022-01-13T12:53:24Z</time>
      </trkpt>
      <trkpt lat="43.19498" lon="6.66385">
        <ele>16.39999961853</ele>
        <time>2022-01-13T12:53:37Z</time>
      </trkpt>
      <trkpt lat="43.195" lon="6.66389">
        <ele>19.39999961853</ele>
        <time>2022-01-13T12:53:50Z</time>
      </trkpt>
      <trkpt lat="43.19505" lon="6.66389">
        <ele>22.60000038147</ele>
        <time>2022-01-13T12:54:05Z</time>
      </trkpt>
      <trkpt lat="43.19513" lon="6.66379">
        <ele>25.60000038147</ele>
        <time>2022-01-13T12:54:23Z</time>
      </trkpt>
      <trkpt lat="43.19527" lon="6.66352">
        <ele>27.200000762939</ele>
        <time>2022-01-13T12:54:49Z</time>
      </trkpt>
      <trkpt lat="43.19551" lon="6.66331">
        <ele>27.799999237061</ele>
        <time>2022-01-13T12:55:16Z</time>
      </trkpt>
      <trkpt lat="43.19562" lon="6.66317">
        <ele>30.799999237061</ele>
        <time>2022-01-13T12:55:37Z</time>
      </trkpt>
      <trkpt lat="43.19563" lon="6.66288">
        <ele>31.39999961853</ele>
        <time>2022-01-13T12:56:01Z</time>
      </trkpt>
      <trkpt lat="43.19563" lon="6.66264">
        <ele>29.60000038147</ele>
        <time>2022-01-13T12:56:28Z</time>
      </trkpt>
      <trkpt lat="43.19564" lon="6.66232">
        <ele>28.39999961853</ele>
        <time>2022-01-13T12:56:48Z</time>
      </trkpt>
      <trkpt lat="43.19575" lon="6.66214">
        <ele>25.799999237061</ele>
        <time>2022-01-13T12:57:10Z</time>
      </trkpt>
      <trkpt lat="43.19585" lon="6.662">
        <ele>23.39999961853</ele>
        <time>2022-01-13T12:57:31Z</time>
      </trkpt>
      <trkpt lat="43.19589" lon="6.66186">
        <ele>20.200000762939</ele>
        <time>2022-01-13T12:57:46Z</time>
      </trkpt>
      <trkpt lat="43.19597" lon="6.66172">
        <ele>18.60000038147</ele>
        <time>2022-01-13T12:58:05Z</time>
      </trkpt>
      <trkpt lat="43.19604" lon="6.66164">
        <ele>20.39999961853</ele>
        <time>2022-01-13T12:58:27Z</time>
      </trkpt>
      <trkpt lat="43.1961" lon="6.66159">
        <ele>21.799999237061</ele>
        <time>2022-01-13T12:58:46Z</time>
      </trkpt>
      <trkpt lat="43.19619" lon="6.66155">
        <ele>25</ele>
        <time>2022-01-13T12:59:02Z</time>
      </trkpt>
      <trkpt lat="43.19629" lon="6.6615">
        <ele>28</ele>
        <time>2022-01-13T12:59:17Z</time>
      </trkpt>
      <trkpt lat="43.19638" lon="6.66149">
        <ele>31.200000762939</ele>
        <time>2022-01-13T12:59:33Z</time>
      </trkpt>
      <trkpt lat="43.19647" lon="6.66141">
        <ele>34.400001525879</ele>
        <time>2022-01-13T12:59:48Z</time>
      </trkpt>
      <trkpt lat="43.19655" lon="6.66131">
        <ele>35.599998474121</ele>
        <time>2022-01-13T13:00:09Z</time>
      </trkpt>
      <trkpt lat="43.1966" lon="6.66133">
        <ele>38</ele>
        <time>2022-01-13T13:00:22Z</time>
      </trkpt>
      <trkpt lat="43.19661" lon="6.66131">
        <ele>38.400001525879</ele>
        <time>2022-01-13T13:00:24Z</time>
      </trkpt>
      <trkpt lat="43.19668" lon="6.66116">
        <ele>39.799999237061</ele>
        <time>2022-01-13T13:00:42Z</time>
      </trkpt>
      <trkpt lat="43.19668" lon="6.66115">
        <ele>39.799999237061</ele>
        <time>2022-01-13T13:00:43Z</time>
      </trkpt>
      <trkpt lat="43.19671" lon="6.66109">
        <ele>40</ele>
        <time>2022-01-13T13:00:48Z</time>
      </trkpt>
      <trkpt lat="43.19674" lon="6.66101">
        <ele>40.200000762939</ele>
        <time>2022-01-13T13:00:54Z</time>
      </trkpt>
      <trkpt lat="43.19685" lon="6.66079">
        <ele>40.799999237061</ele>
        <time>2022-01-13T13:01:11Z</time>
      </trkpt>
      <trkpt lat="43.19691" lon="6.66058">
        <ele>41.599998474121</ele>
        <time>2022-01-13T13:01:26Z</time>
      </trkpt>
      <trkpt lat="43.19693" lon="6.66056">
        <ele>41.799999237061</ele>
        <time>2022-01-13T13:01:28Z</time>
      </trkpt>
      <trkpt lat="43.19696" lon="6.66029">
        <ele>43.400001525879</ele>
        <time>2022-01-13T13:01:46Z</time>
      </trkpt>
      <trkpt lat="43.19696" lon="6.66016">
        <ele>44</ele>
        <time>2022-01-13T13:01:54Z</time>
      </trkpt>
      <trkpt lat="43.19697" lon="6.65986">
        <ele>44.599998474121</ele>
        <time>2022-01-13T13:02:12Z</time>
      </trkpt>
      <trkpt lat="43.19695" lon="6.6597">
        <ele>44.200000762939</ele>
        <time>2022-01-13T13:02:21Z</time>
      </trkpt>
      <trkpt lat="43.19689" lon="6.65953">
        <ele>43.599998474121</ele>
        <time>2022-01-13T13:02:34Z</time>
      </trkpt>
      <trkpt lat="43.1968" lon="6.65944">
        <ele>43.599998474121</ele>
        <time>2022-01-13T13:02:48Z</time>
      </trkpt>
      <trkpt lat="43.1967" lon="6.65939">
        <ele>40.599998474121</ele>
        <time>2022-01-13T13:03:08Z</time>
      </trkpt>
      <trkpt lat="43.19656" lon="6.65918">
        <ele>37.400001525879</ele>
        <time>2022-01-13T13:03:32Z</time>
      </trkpt>
      <trkpt lat="43.19644" lon="6.65907">
        <ele>35.400001525879</ele>
        <time>2022-01-13T13:03:49Z</time>
      </trkpt>
      <trkpt lat="43.19633" lon="6.65885">
        <ele>34.599998474121</ele>
        <time>2022-01-13T13:04:11Z</time>
      </trkpt>
      <trkpt lat="43.19618" lon="6.6586">
        <ele>32.400001525879</ele>
        <time>2022-01-13T13:04:34Z</time>
      </trkpt>
      <trkpt lat="43.19606" lon="6.6585">
        <ele>31</ele>
        <time>2022-01-13T13:04:51Z</time>
      </trkpt>
      <trkpt lat="43.19598" lon="6.65848">
        <ele>27.799999237061</ele>
        <time>2022-01-13T13:05:06Z</time>
      </trkpt>
      <trkpt lat="43.1959" lon="6.65848">
        <ele>24.60000038147</ele>
        <time>2022-01-13T13:05:22Z</time>
      </trkpt>
      <trkpt lat="43.19581" lon="6.65846">
        <ele>21.39999961853</ele>
        <time>2022-01-13T13:05:36Z</time>
      </trkpt>
      <trkpt lat="43.1957" lon="6.65837">
        <ele>18.799999237061</ele>
        <time>2022-01-13T13:05:52Z</time>
      </trkpt>
      <trkpt lat="43.19569" lon="6.65835">
        <ele>18.39999961853</ele>
        <time>2022-01-13T13:05:54Z</time>
      </trkpt>
      <trkpt lat="43.19568" lon="6.65822">
        <ele>16.799999237061</ele>
        <time>2022-01-13T13:06:18Z</time>
      </trkpt>
      <trkpt lat="43.19574" lon="6.65807">
        <ele>19.799999237061</ele>
        <time>2022-01-13T13:06:35Z</time>
      </trkpt>
      <trkpt lat="43.19568" lon="6.65796">
        <ele>22.799999237061</ele>
        <time>2022-01-13T13:06:51Z</time>
      </trkpt>
      <trkpt lat="43.19564" lon="6.6578">
        <ele>26.200000762939</ele>
        <time>2022-01-13T13:07:07Z</time>
      </trkpt>
      <trkpt lat="43.19564" lon="6.65761">
        <ele>28.60000038147</ele>
        <time>2022-01-13T13:07:27Z</time>
      </trkpt>
      <trkpt lat="43.19563" lon="6.65745">
        <ele>31.799999237061</ele>
        <time>2022-01-13T13:07:43Z</time>
      </trkpt>
      <trkpt lat="43.19561" lon="6.65729">
        <ele>34.799999237061</ele>
        <time>2022-01-13T13:08:01Z</time>
      </trkpt>
      <trkpt lat="43.19558" lon="6.65702">
        <ele>37.599998474121</ele>
        <time>2022-01-13T13:08:26Z</time>
      </trkpt>
      <trkpt lat="43.19547" lon="6.65686">
        <ele>38.799999237061</ele>
        <time>2022-01-13T13:08:47Z</time>
      </trkpt>
      <trkpt lat="43.19531" lon="6.65671">
        <ele>38.599998474121</ele>
        <time>2022-01-13T13:09:05Z</time>
      </trkpt>
      <trkpt lat="43.19521" lon="6.65662">
        <ele>38.200000762939</ele>
        <time>2022-01-13T13:09:16Z</time>
      </trkpt>
      <trkpt lat="43.19508" lon="6.65654">
        <ele>36.799999237061</ele>
        <time>2022-01-13T13:09:33Z</time>
      </trkpt>
      <trkpt lat="43.19496" lon="6.65644">
        <ele>33.799999237061</ele>
        <time>2022-01-13T13:09:52Z</time>
      </trkpt>
      <trkpt lat="43.19487" lon="6.65635">
        <ele>31.39999961853</ele>
        <time>2022-01-13T13:10:08Z</time>
      </trkpt>
      <trkpt lat="43.19483" lon="6.65648">
        <ele>28.39999961853</ele>
        <time>2022-01-13T13:10:30Z</time>
      </trkpt>
      <trkpt lat="43.19474" lon="6.6564">
        <ele>25.799999237061</ele>
        <time>2022-01-13T13:10:50Z</time>
      </trkpt>
      <trkpt lat="43.19469" lon="6.65628">
        <ele>22.799999237061</ele>
        <time>2022-01-13T13:11:05Z</time>
      </trkpt>
      <trkpt lat="43.19465" lon="6.65604">
        <ele>20</ele>
        <time>2022-01-13T13:11:22Z</time>
      </trkpt>
      <trkpt lat="43.1946" lon="6.6559">
        <ele>19</ele>
        <time>2022-01-13T13:11:32Z</time>
      </trkpt>
      <trkpt lat="43.19458" lon="6.65584">
        <ele>18.200000762939</ele>
        <time>2022-01-13T13:11:41Z</time>
      </trkpt>
      <trkpt lat="43.19455" lon="6.65581">
        <ele>17.799999237061</ele>
        <time>2022-01-13T13:11:44Z</time>
      </trkpt>
      <trkpt lat="43.19447" lon="6.65568">
        <ele>17.39999961853</ele>
        <time>2022-01-13T13:11:59Z</time>
      </trkpt>
      <trkpt lat="43.19437" lon="6.65561">
        <ele>17.60000038147</ele>
        <time>2022-01-13T13:12:12Z</time>
      </trkpt>
      <trkpt lat="43.19429" lon="6.65545">
        <ele>17</ele>
        <time>2022-01-13T13:12:25Z</time>
      </trkpt>
      <trkpt lat="43.19421" lon="6.65528">
        <ele>16</ele>
        <time>2022-01-13T13:12:43Z</time>
      </trkpt>
      <trkpt lat="43.19415" lon="6.65524">
        <ele>15.39999961853</ele>
        <time>2022-01-13T13:12:49Z</time>
      </trkpt>
      <trkpt lat="43.19394" lon="6.65512">
        <ele>14.39999961853</ele>
        <time>2022-01-13T13:13:10Z</time>
      </trkpt>
      <trkpt lat="43.19392" lon="6.65512">
        <ele>14.199999809265</ele>
        <time>2022-01-13T13:13:12Z</time>
      </trkpt>
      <trkpt lat="43.19376" lon="6.65501">
        <ele>14</ele>
        <time>2022-01-13T13:13:31Z</time>
      </trkpt>
      <trkpt lat="43.19366" lon="6.65479">
        <ele>14.800000190735</ele>
        <time>2022-01-13T13:13:52Z</time>
      </trkpt>
      <trkpt lat="43.19356" lon="6.65463">
        <ele>17.39999961853</ele>
        <time>2022-01-13T13:14:12Z</time>
      </trkpt>
      <trkpt lat="43.19353" lon="6.65445">
        <ele>16.799999237061</ele>
        <time>2022-01-13T13:14:29Z</time>
      </trkpt>
      <trkpt lat="43.19345" lon="6.65441">
        <ele>16.200000762939</ele>
        <time>2022-01-13T13:14:42Z</time>
      </trkpt>
      <trkpt lat="43.1934" lon="6.65441">
        <ele>16</ele>
        <time>2022-01-13T13:14:47Z</time>
      </trkpt>
      <trkpt lat="43.19336" lon="6.65435">
        <ele>15.39999961853</ele>
        <time>2022-01-13T13:14:51Z</time>
      </trkpt>
      <trkpt lat="43.19334" lon="6.65417">
        <ele>14.800000190735</ele>
        <time>2022-01-13T13:15:06Z</time>
      </trkpt>
      <trkpt lat="43.19327" lon="6.65402">
        <ele>16.60000038147</ele>
        <time>2022-01-13T13:15:21Z</time>
      </trkpt>
      <trkpt lat="43.19322" lon="6.65388">
        <ele>16.39999961853</ele>
        <time>2022-01-13T13:15:31Z</time>
      </trkpt>
      <trkpt lat="43.19312" lon="6.65367">
        <ele>16.200000762939</ele>
        <time>2022-01-13T13:15:49Z</time>
      </trkpt>
      <trkpt lat="43.19301" lon="6.65349">
        <ele>16.39999961853</ele>
        <time>2022-01-13T13:16:03Z</time>
      </trkpt>
      <trkpt lat="43.19289" lon="6.65336">
        <ele>16.60000038147</ele>
        <time>2022-01-13T13:16:17Z</time>
      </trkpt>
      <trkpt lat="43.1928" lon="6.65329">
        <ele>16.799999237061</ele>
        <time>2022-01-13T13:16:26Z</time>
      </trkpt>
      <trkpt lat="43.19277" lon="6.65321">
        <ele>16.60000038147</ele>
        <time>2022-01-13T13:16:32Z</time>
      </trkpt>
      <trkpt lat="43.19268" lon="6.65297">
        <ele>16.39999961853</ele>
        <time>2022-01-13T13:16:53Z</time>
      </trkpt>
      <trkpt lat="43.19257" lon="6.65279">
        <ele>16</ele>
        <time>2022-01-13T13:17:13Z</time>
      </trkpt>
      <trkpt lat="43.19247" lon="6.65263">
        <ele>15.800000190735</ele>
        <time>2022-01-13T13:17:31Z</time>
      </trkpt>
      <trkpt lat="43.19235" lon="6.65248">
        <ele>16.200000762939</ele>
        <time>2022-01-13T13:17:49Z</time>
      </trkpt>
      <trkpt lat="43.19233" lon="6.65246">
        <ele>16.200000762939</ele>
        <time>2022-01-13T13:17:51Z</time>
      </trkpt>
      <trkpt lat="43.19225" lon="6.65243">
        <ele>16.200000762939</ele>
        <time>2022-01-13T13:18:08Z</time>
      </trkpt>
      <trkpt lat="43.19216" lon="6.65218">
        <ele>13.60000038147</ele>
        <time>2022-01-13T13:18:32Z</time>
      </trkpt>
      <trkpt lat="43.19204" lon="6.65221">
        <ele>13.800000190735</ele>
        <time>2022-01-13T13:18:52Z</time>
      </trkpt>
      <trkpt lat="43.1919" lon="6.65223">
        <ele>16</ele>
        <time>2022-01-13T13:19:14Z</time>
      </trkpt>
      <trkpt lat="43.19182" lon="6.65222">
        <ele>16</ele>
        <time>2022-01-13T13:19:31Z</time>
      </trkpt>
      <trkpt lat="43.19165" lon="6.65218">
        <ele>17.200000762939</ele>
        <time>2022-01-13T13:19:52Z</time>
      </trkpt>
      <trkpt lat="43.19156" lon="6.65207">
        <ele>19</ele>
        <time>2022-01-13T13:20:12Z</time>
      </trkpt>
      <trkpt lat="43.19156" lon="6.65203">
        <ele>21.799999237061</ele>
        <time>2022-01-13T13:20:40Z</time>
      </trkpt>
      <trkpt lat="43.19151" lon="6.65195">
        <ele>22.60000038147</ele>
        <time>2022-01-13T13:21:27Z</time>
      </trkpt>
      <trkpt lat="43.19142" lon="6.65177">
        <ele>23.60000038147</ele>
        <time>2022-01-13T13:21:49Z</time>
      </trkpt>
      <trkpt lat="43.19136" lon="6.65165">
        <ele>22.39999961853</ele>
        <time>2022-01-13T13:22:02Z</time>
      </trkpt>
      <trkpt lat="43.19128" lon="6.65145">
        <ele>20.60000038147</ele>
        <time>2022-01-13T13:22:19Z</time>
      </trkpt>
      <trkpt lat="43.19125" lon="6.65136">
        <ele>19.60000038147</ele>
        <time>2022-01-13T13:22:25Z</time>
      </trkpt>
      <trkpt lat="43.19121" lon="6.65119">
        <ele>18.60000038147</ele>
        <time>2022-01-13T13:22:38Z</time>
      </trkpt>
      <trkpt lat="43.19121" lon="6.65117">
        <ele>19.39999961853</ele>
        <time>2022-01-13T13:22:55Z</time>
      </trkpt>
      <trkpt lat="43.19115" lon="6.65123">
        <ele>18.200000762939</ele>
        <time>2022-01-13T13:23:13Z</time>
      </trkpt>
      <trkpt lat="43.19105" lon="6.6512">
        <ele>16.39999961853</ele>
        <time>2022-01-13T13:23:32Z</time>
      </trkpt>
      <trkpt lat="43.19098" lon="6.65108">
        <ele>14.39999961853</ele>
        <time>2022-01-13T13:23:54Z</time>
      </trkpt>
      <trkpt lat="43.19085" lon="6.65099">
        <ele>16.60000038147</ele>
        <time>2022-01-13T13:24:18Z</time>
      </trkpt>
      <trkpt lat="43.19068" lon="6.65096">
        <ele>18.60000038147</ele>
        <time>2022-01-13T13:24:37Z</time>
      </trkpt>
      <trkpt lat="43.19064" lon="6.65071">
        <ele>18</ele>
        <time>2022-01-13T13:24:57Z</time>
      </trkpt>
      <trkpt lat="43.19057" lon="6.65049">
        <ele>17.60000038147</ele>
        <time>2022-01-13T13:25:21Z</time>
      </trkpt>
      <trkpt lat="43.19048" lon="6.65027">
        <ele>18.799999237061</ele>
        <time>2022-01-13T13:25:45Z</time>
      </trkpt>
      <trkpt lat="43.1903" lon="6.65014">
        <ele>19.200000762939</ele>
        <time>2022-01-13T13:26:04Z</time>
      </trkpt>
      <trkpt lat="43.1902" lon="6.64987">
        <ele>19</ele>
        <time>2022-01-13T13:26:26Z</time>
      </trkpt>
      <trkpt lat="43.19012" lon="6.64971">
        <ele>19</ele>
        <time>2022-01-13T13:26:46Z</time>
      </trkpt>
      <trkpt lat="43.19011" lon="6.64964">
        <ele>19.60000038147</ele>
        <time>2022-01-13T13:27:07Z</time>
      </trkpt>
      <trkpt lat="43.18992" lon="6.64962">
        <ele>19</ele>
        <time>2022-01-13T13:27:30Z</time>
      </trkpt>
      <trkpt lat="43.18979" lon="6.64965">
        <ele>18.39999961853</ele>
        <time>2022-01-13T13:27:43Z</time>
      </trkpt>
      <trkpt lat="43.1897" lon="6.64962">
        <ele>18.200000762939</ele>
        <time>2022-01-13T13:27:50Z</time>
      </trkpt>
      <trkpt lat="43.18957" lon="6.64958">
        <ele>16.799999237061</ele>
        <time>2022-01-13T13:28:04Z</time>
      </trkpt>
      <trkpt lat="43.18938" lon="6.6496">
        <ele>15.800000190735</ele>
        <time>2022-01-13T13:28:20Z</time>
      </trkpt>
      <trkpt lat="43.18928" lon="6.64956">
        <ele>16.200000762939</ele>
        <time>2022-01-13T13:28:32Z</time>
      </trkpt>
      <trkpt lat="43.18915" lon="6.64961">
        <ele>16.200000762939</ele>
        <time>2022-01-13T13:28:44Z</time>
      </trkpt>
      <trkpt lat="43.18906" lon="6.6496">
        <ele>16.200000762939</ele>
        <time>2022-01-13T13:28:58Z</time>
      </trkpt>
      <trkpt lat="43.18904" lon="6.64957">
        <ele>16.200000762939</ele>
        <time>2022-01-13T13:29:01Z</time>
      </trkpt>
      <trkpt lat="43.18901" lon="6.64954">
        <ele>16.200000762939</ele>
        <time>2022-01-13T13:29:05Z</time>
      </trkpt>
      <trkpt lat="43.18892" lon="6.64943">
        <ele>16.60000038147</ele>
        <time>2022-01-13T13:29:21Z</time>
      </trkpt>
      <trkpt lat="43.18889" lon="6.64939">
        <ele>16.60000038147</ele>
        <time>2022-01-13T13:29:26Z</time>
      </trkpt>
      <trkpt lat="43.18886" lon="6.64917">
        <ele>16.200000762939</ele>
        <time>2022-01-13T13:29:42Z</time>
      </trkpt>
      <trkpt lat="43.18883" lon="6.6491">
        <ele>16.200000762939</ele>
        <time>2022-01-13T13:29:50Z</time>
      </trkpt>
      <trkpt lat="43.18881" lon="6.64895">
        <ele>15.199999809265</ele>
        <time>2022-01-13T13:30:07Z</time>
      </trkpt>
      <trkpt lat="43.18874" lon="6.64867">
        <ele>16.39999961853</ele>
        <time>2022-01-13T13:30:33Z</time>
      </trkpt>
      <trkpt lat="43.18878" lon="6.64837">
        <ele>17.799999237061</ele>
        <time>2022-01-13T13:30:58Z</time>
      </trkpt>
      <trkpt lat="43.18869" lon="6.64821">
        <ele>18.799999237061</ele>
        <time>2022-01-13T13:31:21Z</time>
      </trkpt>
      <trkpt lat="43.18854" lon="6.64819">
        <ele>18.39999961853</ele>
        <time>2022-01-13T13:31:41Z</time>
      </trkpt>
      <trkpt lat="43.18842" lon="6.64805">
        <ele>18.200000762939</ele>
        <time>2022-01-13T13:32:00Z</time>
      </trkpt>
      <trkpt lat="43.18831" lon="6.64803">
        <ele>20.200000762939</ele>
        <time>2022-01-13T13:32:20Z</time>
      </trkpt>
      <trkpt lat="43.18825" lon="6.64798">
        <ele>20.39999961853</ele>
        <time>2022-01-13T13:32:37Z</time>
      </trkpt>
      <trkpt lat="43.18816" lon="6.64787">
        <ele>19.60000038147</ele>
        <time>2022-01-13T13:32:53Z</time>
      </trkpt>
      <trkpt lat="43.18811" lon="6.64767">
        <ele>18.39999961853</ele>
        <time>2022-01-13T13:33:11Z</time>
      </trkpt>
      <trkpt lat="43.18809" lon="6.64754">
        <ele>18.200000762939</ele>
        <time>2022-01-13T13:33:25Z</time>
      </trkpt>
      <trkpt lat="43.18803" lon="6.64736">
        <ele>16.200000762939</ele>
        <time>2022-01-13T13:33:47Z</time>
      </trkpt>
      <trkpt lat="43.188" lon="6.64714">
        <ele>18.39999961853</ele>
        <time>2022-01-13T13:34:07Z</time>
      </trkpt>
      <trkpt lat="43.18795" lon="6.64699">
        <ele>18.60000038147</ele>
        <time>2022-01-13T13:34:21Z</time>
      </trkpt>
      <trkpt lat="43.18791" lon="6.6468">
        <ele>17.799999237061</ele>
        <time>2022-01-13T13:34:37Z</time>
      </trkpt>
      <trkpt lat="43.18789" lon="6.64659">
        <ele>16.200000762939</ele>
        <time>2022-01-13T13:34:58Z</time>
      </trkpt>
      <trkpt lat="43.1879" lon="6.6465">
        <ele>16.799999237061</ele>
        <time>2022-01-13T13:35:19Z</time>
      </trkpt>
      <trkpt lat="43.18788" lon="6.64635">
        <ele>16.39999961853</ele>
        <time>2022-01-13T13:35:37Z</time>
      </trkpt>
      <trkpt lat="43.18794" lon="6.6462">
        <ele>16.200000762939</ele>
        <time>2022-01-13T13:35:57Z</time>
      </trkpt>
      <trkpt lat="43.18796" lon="6.64606">
        <ele>14</ele>
        <time>2022-01-13T13:36:19Z</time>
      </trkpt>
      <trkpt lat="43.188" lon="6.64589">
        <ele>15</ele>
        <time>2022-01-13T13:36:43Z</time>
      </trkpt>
      <trkpt lat="43.18804" lon="6.64557">
        <ele>15</ele>
        <time>2022-01-13T13:37:05Z</time>
      </trkpt>
      <trkpt lat="43.18797" lon="6.64533">
        <ele>14.800000190735</ele>
        <time>2022-01-13T13:37:23Z</time>
      </trkpt>
      <trkpt lat="43.18795" lon="6.64523">
        <ele>14.199999809265</ele>
        <time>2022-01-13T13:37:31Z</time>
      </trkpt>
      <trkpt lat="43.18797" lon="6.64518">
        <ele>13.800000190735</ele>
        <time>2022-01-13T13:37:36Z</time>
      </trkpt>
      <trkpt lat="43.18801" lon="6.64491">
        <ele>13.800000190735</ele>
        <time>2022-01-13T13:37:55Z</time>
      </trkpt>
      <trkpt lat="43.18803" lon="6.6447">
        <ele>14.39999961853</ele>
        <time>2022-01-13T13:38:12Z</time>
      </trkpt>
      <trkpt lat="43.18801" lon="6.64454">
        <ele>14.39999961853</ele>
        <time>2022-01-13T13:38:31Z</time>
      </trkpt>
      <trkpt lat="43.188" lon="6.64453">
        <ele>14.60000038147</ele>
        <time>2022-01-13T13:38:48Z</time>
      </trkpt>
      <trkpt lat="43.188" lon="6.64429">
        <ele>14.39999961853</ele>
        <time>2022-01-13T13:39:09Z</time>
      </trkpt>
      <trkpt lat="43.18796" lon="6.64411">
        <ele>14.39999961853</ele>
        <time>2022-01-13T13:39:22Z</time>
      </trkpt>
      <trkpt lat="43.18788" lon="6.6438">
        <ele>14.60000038147</ele>
        <time>2022-01-13T13:39:44Z</time>
      </trkpt>
      <trkpt lat="43.18781" lon="6.6435">
        <ele>16.200000762939</ele>
        <time>2022-01-13T13:40:04Z</time>
      </trkpt>
      <trkpt lat="43.18773" lon="6.64314">
        <ele>16.799999237061</ele>
        <time>2022-01-13T13:40:29Z</time>
      </trkpt>
      <trkpt lat="43.18753" lon="6.64285">
        <ele>16.799999237061</ele>
        <time>2022-01-13T13:40:55Z</time>
      </trkpt>
      <trkpt lat="43.18737" lon="6.64265">
        <ele>17</ele>
        <time>2022-01-13T13:41:14Z</time>
      </trkpt>
      <trkpt lat="43.18719" lon="6.64252">
        <ele>17.39999961853</ele>
        <time>2022-01-13T13:41:36Z</time>
      </trkpt>
      <trkpt lat="43.18717" lon="6.6425">
        <ele>17.200000762939</ele>
        <time>2022-01-13T13:41:39Z</time>
      </trkpt>
      <trkpt lat="43.18707" lon="6.64243">
        <ele>16.60000038147</ele>
        <time>2022-01-13T13:41:55Z</time>
      </trkpt>
      <trkpt lat="43.18708" lon="6.64244">
        <ele>16.39999961853</ele>
        <time>2022-01-13T13:42:05Z</time>
      </trkpt>
      <trkpt lat="43.18718" lon="6.64245">
        <ele>16.39999961853</ele>
        <time>2022-01-13T13:42:22Z</time>
      </trkpt>
      <trkpt lat="43.18725" lon="6.64225">
        <ele>17.799999237061</ele>
        <time>2022-01-13T13:42:42Z</time>
      </trkpt>
      <trkpt lat="43.18723" lon="6.64224">
        <ele>18.60000038147</ele>
        <time>2022-01-13T13:43:10Z</time>
      </trkpt>
      <trkpt lat="43.18723" lon="6.64223">
        <ele>18.60000038147</ele>
        <time>2022-01-13T13:43:56Z</time>
      </trkpt>
      <trkpt lat="43.18723" lon="6.64221">
        <ele>18.60000038147</ele>
        <time>2022-01-13T13:44:36Z</time>
      </trkpt>
      <trkpt lat="43.18715" lon="6.64219">
        <ele>19</ele>
        <time>2022-01-13T13:45:28Z</time>
      </trkpt>
      <trkpt lat="43.18706" lon="6.64208">
        <ele>18.200000762939</ele>
        <time>2022-01-13T13:45:40Z</time>
      </trkpt>
      <trkpt lat="43.18701" lon="6.64205">
        <ele>18</ele>
        <time>2022-01-13T13:45:44Z</time>
      </trkpt>
      <trkpt lat="43.18693" lon="6.64199">
        <ele>17.799999237061</ele>
        <time>2022-01-13T13:45:53Z</time>
      </trkpt>
      <trkpt lat="43.18671" lon="6.64199">
        <ele>17.200000762939</ele>
        <time>2022-01-13T13:46:13Z</time>
      </trkpt>
      <trkpt lat="43.18656" lon="6.64198">
        <ele>18.60000038147</ele>
        <time>2022-01-13T13:46:32Z</time>
      </trkpt>
      <trkpt lat="43.18655" lon="6.64198">
        <ele>18.799999237061</ele>
        <time>2022-01-13T13:46:33Z</time>
      </trkpt>
      <trkpt lat="43.18639" lon="6.64194">
        <ele>20.200000762939</ele>
        <time>2022-01-13T13:46:51Z</time>
      </trkpt>
      <trkpt lat="43.18629" lon="6.64187">
        <ele>21.200000762939</ele>
        <time>2022-01-13T13:47:03Z</time>
      </trkpt>
      <trkpt lat="43.18616" lon="6.64169">
        <ele>22</ele>
        <time>2022-01-13T13:47:22Z</time>
      </trkpt>
      <trkpt lat="43.18604" lon="6.64158">
        <ele>22.60000038147</ele>
        <time>2022-01-13T13:47:43Z</time>
      </trkpt>
      <trkpt lat="43.18599" lon="6.64155">
        <ele>22.60000038147</ele>
        <time>2022-01-13T13:47:52Z</time>
      </trkpt>
      <trkpt lat="43.18585" lon="6.64144">
        <ele>22.60000038147</ele>
        <time>2022-01-13T13:48:08Z</time>
      </trkpt>
      <trkpt lat="43.18572" lon="6.64147">
        <ele>23.799999237061</ele>
        <time>2022-01-13T13:48:20Z</time>
      </trkpt>
      <trkpt lat="43.18561" lon="6.64154">
        <ele>24.60000038147</ele>
        <time>2022-01-13T13:48:30Z</time>
      </trkpt>
      <trkpt lat="43.18559" lon="6.6416">
        <ele>25.200000762939</ele>
        <time>2022-01-13T13:48:37Z</time>
      </trkpt>
      <trkpt lat="43.18543" lon="6.64182">
        <ele>25.799999237061</ele>
        <time>2022-01-13T13:49:01Z</time>
      </trkpt>
      <trkpt lat="43.18537" lon="6.64186">
        <ele>25.799999237061</ele>
        <time>2022-01-13T13:49:09Z</time>
      </trkpt>
      <trkpt lat="43.18536" lon="6.6419">
        <ele>26</ele>
        <time>2022-01-13T13:49:12Z</time>
      </trkpt>
      <trkpt lat="43.18532" lon="6.64201">
        <ele>26.60000038147</ele>
        <time>2022-01-13T13:49:26Z</time>
      </trkpt>
      <trkpt lat="43.18528" lon="6.64208">
        <ele>26.200000762939</ele>
        <time>2022-01-13T13:49:34Z</time>
      </trkpt>
      <trkpt lat="43.18527" lon="6.6421">
        <ele>25.799999237061</ele>
        <time>2022-01-13T13:49:36Z</time>
      </trkpt>
      <trkpt lat="43.18521" lon="6.64217">
        <ele>24</ele>
        <time>2022-01-13T13:49:42Z</time>
      </trkpt>
      <trkpt lat="43.18523" lon="6.64224">
        <ele>22.39999961853</ele>
        <time>2022-01-13T13:49:52Z</time>
      </trkpt>
      <trkpt lat="43.18524" lon="6.64226">
        <ele>22.200000762939</ele>
        <time>2022-01-13T13:49:54Z</time>
      </trkpt>
      <trkpt lat="43.18523" lon="6.64235">
        <ele>21.39999961853</ele>
        <time>2022-01-13T13:50:06Z</time>
      </trkpt>
      <trkpt lat="43.18512" lon="6.64246">
        <ele>21.799999237061</ele>
        <time>2022-01-13T13:50:25Z</time>
      </trkpt>
      <trkpt lat="43.18505" lon="6.64259">
        <ele>20</ele>
        <time>2022-01-13T13:50:41Z</time>
      </trkpt>
      <trkpt lat="43.18493" lon="6.64261">
        <ele>20.39999961853</ele>
        <time>2022-01-13T13:50:59Z</time>
      </trkpt>
      <trkpt lat="43.18493" lon="6.64262">
        <ele>20.39999961853</ele>
        <time>2022-01-13T13:51:00Z</time>
      </trkpt>
      <trkpt lat="43.18486" lon="6.64258">
        <ele>21.39999961853</ele>
        <time>2022-01-13T13:51:21Z</time>
      </trkpt>
      <trkpt lat="43.18477" lon="6.64256">
        <ele>21.39999961853</ele>
        <time>2022-01-13T13:51:44Z</time>
      </trkpt>
      <trkpt lat="43.18469" lon="6.64252">
        <ele>20.60000038147</ele>
        <time>2022-01-13T13:52:03Z</time>
      </trkpt>
      <trkpt lat="43.18467" lon="6.64251">
        <ele>20.60000038147</ele>
        <time>2022-01-13T13:52:05Z</time>
      </trkpt>
      <trkpt lat="43.18457" lon="6.64254">
        <ele>20.39999961853</ele>
        <time>2022-01-13T13:52:21Z</time>
      </trkpt>
      <trkpt lat="43.18451" lon="6.64251">
        <ele>20.200000762939</ele>
        <time>2022-01-13T13:52:40Z</time>
      </trkpt>
      <trkpt lat="43.18442" lon="6.64246">
        <ele>21.60000038147</ele>
        <time>2022-01-13T13:52:59Z</time>
      </trkpt>
      <trkpt lat="43.18434" lon="6.64247">
        <ele>22</ele>
        <time>2022-01-13T13:53:13Z</time>
      </trkpt>
      <trkpt lat="43.1843" lon="6.64251">
        <ele>21.799999237061</ele>
        <time>2022-01-13T13:53:18Z</time>
      </trkpt>
      <trkpt lat="43.18424" lon="6.64254">
        <ele>21.799999237061</ele>
        <time>2022-01-13T13:53:27Z</time>
      </trkpt>
      <trkpt lat="43.1842" lon="6.64257">
        <ele>21.799999237061</ele>
        <time>2022-01-13T13:53:31Z</time>
      </trkpt>
      <trkpt lat="43.1841" lon="6.64266">
        <ele>22</ele>
        <time>2022-01-13T13:53:48Z</time>
      </trkpt>
      <trkpt lat="43.18396" lon="6.64279">
        <ele>22.39999961853</ele>
        <time>2022-01-13T13:54:06Z</time>
      </trkpt>
      <trkpt lat="43.18395" lon="6.64279">
        <ele>22.39999961853</ele>
        <time>2022-01-13T13:54:08Z</time>
      </trkpt>
      <trkpt lat="43.18385" lon="6.64285">
        <ele>23.200000762939</ele>
        <time>2022-01-13T13:54:22Z</time>
      </trkpt>
      <trkpt lat="43.18379" lon="6.64291">
        <ele>23.799999237061</ele>
        <time>2022-01-13T13:54:31Z</time>
      </trkpt>
      <trkpt lat="43.18368" lon="6.64298">
        <ele>22.60000038147</ele>
        <time>2022-01-13T13:54:49Z</time>
      </trkpt>
      <trkpt lat="43.18364" lon="6.64297">
        <ele>21.60000038147</ele>
        <time>2022-01-13T13:55:15Z</time>
      </trkpt>
      <trkpt lat="43.18358" lon="6.64292">
        <ele>21.799999237061</ele>
        <time>2022-01-13T13:55:36Z</time>
      </trkpt>
      <trkpt lat="43.18351" lon="6.64284">
        <ele>21.60000038147</ele>
        <time>2022-01-13T13:55:54Z</time>
      </trkpt>
      <trkpt lat="43.18344" lon="6.64273">
        <ele>23.39999961853</ele>
        <time>2022-01-13T13:56:18Z</time>
      </trkpt>
      <trkpt lat="43.18338" lon="6.64282">
        <ele>25.200000762939</ele>
        <time>2022-01-13T13:56:34Z</time>
      </trkpt>
      <trkpt lat="43.18336" lon="6.64285">
        <ele>25.39999961853</ele>
        <time>2022-01-13T13:56:38Z</time>
      </trkpt>
      <trkpt lat="43.18334" lon="6.64289">
        <ele>25.60000038147</ele>
        <time>2022-01-13T13:56:55Z</time>
      </trkpt>
      <trkpt lat="43.18327" lon="6.64286">
        <ele>25.60000038147</ele>
        <time>2022-01-13T13:57:10Z</time>
      </trkpt>
      <trkpt lat="43.18322" lon="6.64289">
        <ele>24.799999237061</ele>
        <time>2022-01-13T13:57:27Z</time>
      </trkpt>
      <trkpt lat="43.18317" lon="6.64291">
        <ele>22.799999237061</ele>
        <time>2022-01-13T13:57:40Z</time>
      </trkpt>
      <trkpt lat="43.18311" lon="6.64287">
        <ele>22.799999237061</ele>
        <time>2022-01-13T13:58:13Z</time>
      </trkpt>
      <trkpt lat="43.18308" lon="6.64286">
        <ele>23.200000762939</ele>
        <time>2022-01-13T13:58:32Z</time>
      </trkpt>
      <trkpt lat="43.18305" lon="6.64286">
        <ele>23.200000762939</ele>
        <time>2022-01-13T13:58:47Z</time>
      </trkpt>
      <trkpt lat="43.18298" lon="6.64282">
        <ele>22</ele>
        <time>2022-01-13T13:59:03Z</time>
      </trkpt>
      <trkpt lat="43.18296" lon="6.64273">
        <ele>21</ele>
        <time>2022-01-13T13:59:15Z</time>
      </trkpt>
      <trkpt lat="43.18288" lon="6.64257">
        <ele>21</ele>
        <time>2022-01-13T13:59:30Z</time>
      </trkpt>
      <trkpt lat="43.18285" lon="6.64254">
        <ele>21</ele>
        <time>2022-01-13T13:59:35Z</time>
      </trkpt>
      <trkpt lat="43.18273" lon="6.64251">
        <ele>19.60000038147</ele>
        <time>2022-01-13T13:59:52Z</time>
      </trkpt>
      <trkpt lat="43.18269" lon="6.64253">
        <ele>18.60000038147</ele>
        <time>2022-01-13T14:00:00Z</time>
      </trkpt>
      <trkpt lat="43.18265" lon="6.64245">
        <ele>18.200000762939</ele>
        <time>2022-01-13T14:00:07Z</time>
      </trkpt>
      <trkpt lat="43.18261" lon="6.64239">
        <ele>17.39999961853</ele>
        <time>2022-01-13T14:00:13Z</time>
      </trkpt>
      <trkpt lat="43.18255" lon="6.64238">
        <ele>17.39999961853</ele>
        <time>2022-01-13T14:00:19Z</time>
      </trkpt>
      <trkpt lat="43.1825" lon="6.64231">
        <ele>16.200000762939</ele>
        <time>2022-01-13T14:00:37Z</time>
      </trkpt>
      <trkpt lat="43.18248" lon="6.64229">
        <ele>16.39999961853</ele>
        <time>2022-01-13T14:00:48Z</time>
      </trkpt>
      <trkpt lat="43.18242" lon="6.64217">
        <ele>15.800000190735</ele>
        <time>2022-01-13T14:01:03Z</time>
      </trkpt>
      <trkpt lat="43.18235" lon="6.64202">
        <ele>16.60000038147</ele>
        <time>2022-01-13T14:01:21Z</time>
      </trkpt>
      <trkpt lat="43.1823" lon="6.64186">
        <ele>18.60000038147</ele>
        <time>2022-01-13T14:01:40Z</time>
      </trkpt>
      <trkpt lat="43.18226" lon="6.64174">
        <ele>19</ele>
        <time>2022-01-13T14:01:56Z</time>
      </trkpt>
      <trkpt lat="43.1823" lon="6.64153">
        <ele>19.60000038147</ele>
        <time>2022-01-13T14:02:14Z</time>
      </trkpt>
      <trkpt lat="43.18227" lon="6.64151">
        <ele>20.799999237061</ele>
        <time>2022-01-13T14:02:39Z</time>
      </trkpt>
      <trkpt lat="43.18222" lon="6.64137">
        <ele>17.799999237061</ele>
        <time>2022-01-13T14:02:59Z</time>
      </trkpt>
      <trkpt lat="43.18211" lon="6.64117">
        <ele>16</ele>
        <time>2022-01-13T14:03:15Z</time>
      </trkpt>
      <trkpt lat="43.18209" lon="6.641">
        <ele>14</ele>
        <time>2022-01-13T14:03:34Z</time>
      </trkpt>
      <trkpt lat="43.18202" lon="6.64083">
        <ele>14.800000190735</ele>
        <time>2022-01-13T14:03:54Z</time>
      </trkpt>
      <trkpt lat="43.18202" lon="6.64064">
        <ele>13.199999809265</ele>
        <time>2022-01-13T14:04:12Z</time>
      </trkpt>
      <trkpt lat="43.18193" lon="6.64054">
        <ele>13.199999809265</ele>
        <time>2022-01-13T14:04:29Z</time>
      </trkpt>
      <trkpt lat="43.18183" lon="6.64051">
        <ele>14</ele>
        <time>2022-01-13T14:04:50Z</time>
      </trkpt>
      <trkpt lat="43.18184" lon="6.64042">
        <ele>17</ele>
        <time>2022-01-13T14:05:04Z</time>
      </trkpt>
      <trkpt lat="43.18183" lon="6.6403">
        <ele>19.60000038147</ele>
        <time>2022-01-13T14:05:23Z</time>
      </trkpt>
      <trkpt lat="43.18172" lon="6.6403">
        <ele>19.39999961853</ele>
        <time>2022-01-13T14:05:43Z</time>
      </trkpt>
      <trkpt lat="43.18158" lon="6.64035">
        <ele>17.60000038147</ele>
        <time>2022-01-13T14:06:07Z</time>
      </trkpt>
      <trkpt lat="43.18149" lon="6.64028">
        <ele>15.60000038147</ele>
        <time>2022-01-13T14:06:24Z</time>
      </trkpt>
      <trkpt lat="43.18149" lon="6.64029">
        <ele>15.39999961853</ele>
        <time>2022-01-13T14:06:25Z</time>
      </trkpt>
      <trkpt lat="43.1814" lon="6.6403">
        <ele>16.200000762939</ele>
        <time>2022-01-13T14:06:44Z</time>
      </trkpt>
      <trkpt lat="43.1813" lon="6.64038">
        <ele>18.60000038147</ele>
        <time>2022-01-13T14:07:01Z</time>
      </trkpt>
      <trkpt lat="43.18132" lon="6.64023">
        <ele>20.799999237061</ele>
        <time>2022-01-13T14:07:19Z</time>
      </trkpt>
      <trkpt lat="43.18126" lon="6.64011">
        <ele>21.39999961853</ele>
        <time>2022-01-13T14:07:39Z</time>
      </trkpt>
      <trkpt lat="43.18115" lon="6.63998">
        <ele>19.39999961853</ele>
        <time>2022-01-13T14:08:04Z</time>
      </trkpt>
      <trkpt lat="43.18107" lon="6.63993">
        <ele>20.799999237061</ele>
        <time>2022-01-13T14:08:23Z</time>
      </trkpt>
      <trkpt lat="43.18108" lon="6.63976">
        <ele>22.39999961853</ele>
        <time>2022-01-13T14:08:41Z</time>
      </trkpt>
      <trkpt lat="43.18113" lon="6.63961">
        <ele>25.200000762939</ele>
        <time>2022-01-13T14:09:00Z</time>
      </trkpt>
      <trkpt lat="43.18106" lon="6.6396">
        <ele>25</ele>
        <time>2022-01-13T14:09:15Z</time>
      </trkpt>
      <trkpt lat="43.18091" lon="6.63962">
        <ele>26.39999961853</ele>
        <time>2022-01-13T14:09:34Z</time>
      </trkpt>
      <trkpt lat="43.18088" lon="6.63965">
        <ele>26.799999237061</ele>
        <time>2022-01-13T14:09:37Z</time>
      </trkpt>
      <trkpt lat="43.18081" lon="6.63967">
        <ele>27.200000762939</ele>
        <time>2022-01-13T14:09:44Z</time>
      </trkpt>
      <trkpt lat="43.18064" lon="6.63959">
        <ele>27.799999237061</ele>
        <time>2022-01-13T14:10:01Z</time>
      </trkpt>
      <trkpt lat="43.18045" lon="6.63959">
        <ele>28.799999237061</ele>
        <time>2022-01-13T14:10:16Z</time>
      </trkpt>
      <trkpt lat="43.18035" lon="6.63949">
        <ele>30.60000038147</ele>
        <time>2022-01-13T14:10:31Z</time>
      </trkpt>
      <trkpt lat="43.18018" lon="6.63946">
        <ele>32.400001525879</ele>
        <time>2022-01-13T14:10:48Z</time>
      </trkpt>
      <trkpt lat="43.17996" lon="6.6395">
        <ele>31.60000038147</ele>
        <time>2022-01-13T14:11:07Z</time>
      </trkpt>
      <trkpt lat="43.17981" lon="6.63962">
        <ele>31.39999961853</ele>
        <time>2022-01-13T14:11:24Z</time>
      </trkpt>
      <trkpt lat="43.17978" lon="6.63963">
        <ele>31.799999237061</ele>
        <time>2022-01-13T14:11:31Z</time>
      </trkpt>
      <trkpt lat="43.17977" lon="6.63964">
        <ele>31.799999237061</ele>
        <time>2022-01-13T14:11:33Z</time>
      </trkpt>
      <trkpt lat="43.1796" lon="6.63969">
        <ele>33.799999237061</ele>
        <time>2022-01-13T14:11:54Z</time>
      </trkpt>
      <trkpt lat="43.17948" lon="6.63972">
        <ele>34.599998474121</ele>
        <time>2022-01-13T14:12:09Z</time>
      </trkpt>
      <trkpt lat="43.17934" lon="6.63973">
        <ele>35.799999237061</ele>
        <time>2022-01-13T14:12:25Z</time>
      </trkpt>
      <trkpt lat="43.17923" lon="6.63971">
        <ele>37.400001525879</ele>
        <time>2022-01-13T14:12:40Z</time>
      </trkpt>
      <trkpt lat="43.17912" lon="6.63966">
        <ele>39.200000762939</ele>
        <time>2022-01-13T14:12:52Z</time>
      </trkpt>
      <trkpt lat="43.17903" lon="6.63962">
        <ele>41</ele>
        <time>2022-01-13T14:13:11Z</time>
      </trkpt>
      <trkpt lat="43.17887" lon="6.63964">
        <ele>40.400001525879</ele>
        <time>2022-01-13T14:13:28Z</time>
      </trkpt>
      <trkpt lat="43.17881" lon="6.63967">
        <ele>39.799999237061</ele>
        <time>2022-01-13T14:13:36Z</time>
      </trkpt>
      <trkpt lat="43.17865" lon="6.63978">
        <ele>37.400001525879</ele>
        <time>2022-01-13T14:13:53Z</time>
      </trkpt>
      <trkpt lat="43.17843" lon="6.63985">
        <ele>35.799999237061</ele>
        <time>2022-01-13T14:14:12Z</time>
      </trkpt>
      <trkpt lat="43.17825" lon="6.63988">
        <ele>35.599998474121</ele>
        <time>2022-01-13T14:14:29Z</time>
      </trkpt>
      <trkpt lat="43.17809" lon="6.63992">
        <ele>36</ele>
        <time>2022-01-13T14:14:47Z</time>
      </trkpt>
      <trkpt lat="43.17806" lon="6.63993">
        <ele>36.200000762939</ele>
        <time>2022-01-13T14:14:51Z</time>
      </trkpt>
      <trkpt lat="43.17798" lon="6.64">
        <ele>37.200000762939</ele>
        <time>2022-01-13T14:15:01Z</time>
      </trkpt>
      <trkpt lat="43.17793" lon="6.64002">
        <ele>37.599998474121</ele>
        <time>2022-01-13T14:15:07Z</time>
      </trkpt>
      <trkpt lat="43.17774" lon="6.64012">
        <ele>39.400001525879</ele>
        <time>2022-01-13T14:15:28Z</time>
      </trkpt>
      <trkpt lat="43.17772" lon="6.64014">
        <ele>39.400001525879</ele>
        <time>2022-01-13T14:15:30Z</time>
      </trkpt>
      <trkpt lat="43.17757" lon="6.64022">
        <ele>40.400001525879</ele>
        <time>2022-01-13T14:15:49Z</time>
      </trkpt>
      <trkpt lat="43.17748" lon="6.64021">
        <ele>41</ele>
        <time>2022-01-13T14:16:00Z</time>
      </trkpt>
      <trkpt lat="43.17732" lon="6.64021">
        <ele>41.799999237061</ele>
        <time>2022-01-13T14:16:18Z</time>
      </trkpt>
      <trkpt lat="43.17714" lon="6.64024">
        <ele>41.599998474121</ele>
        <time>2022-01-13T14:16:35Z</time>
      </trkpt>
      <trkpt lat="43.17708" lon="6.64025">
        <ele>41.400001525879</ele>
        <time>2022-01-13T14:16:43Z</time>
      </trkpt>
      <trkpt lat="43.17688" lon="6.64021">
        <ele>40.400001525879</ele>
        <time>2022-01-13T14:17:01Z</time>
      </trkpt>
      <trkpt lat="43.17667" lon="6.64019">
        <ele>40.400001525879</ele>
        <time>2022-01-13T14:17:20Z</time>
      </trkpt>
      <trkpt lat="43.17665" lon="6.64018">
        <ele>40.400001525879</ele>
        <time>2022-01-13T14:17:22Z</time>
      </trkpt>
      <trkpt lat="43.17651" lon="6.64021">
        <ele>42</ele>
        <time>2022-01-13T14:17:38Z</time>
      </trkpt>
      <trkpt lat="43.17639" lon="6.6402">
        <ele>43.400001525879</ele>
        <time>2022-01-13T14:17:52Z</time>
      </trkpt>
      <trkpt lat="43.17627" lon="6.64017">
        <ele>45.400001525879</ele>
        <time>2022-01-13T14:18:07Z</time>
      </trkpt>
      <trkpt lat="43.1762" lon="6.64009">
        <ele>45.799999237061</ele>
        <time>2022-01-13T14:18:23Z</time>
      </trkpt>
      <trkpt lat="43.17617" lon="6.63996">
        <ele>43.799999237061</ele>
        <time>2022-01-13T14:18:42Z</time>
      </trkpt>
      <trkpt lat="43.17614" lon="6.63981">
        <ele>41.799999237061</ele>
        <time>2022-01-13T14:18:59Z</time>
      </trkpt>
      <trkpt lat="43.17612" lon="6.6397">
        <ele>40</ele>
        <time>2022-01-13T14:19:13Z</time>
      </trkpt>
      <trkpt lat="43.17609" lon="6.63966">
        <ele>38.799999237061</ele>
        <time>2022-01-13T14:19:40Z</time>
      </trkpt>
      <trkpt lat="43.17607" lon="6.63962">
        <ele>38.200000762939</ele>
        <time>2022-01-13T14:20:14Z</time>
      </trkpt>
      <trkpt lat="43.17605" lon="6.63955">
        <ele>37.200000762939</ele>
        <time>2022-01-13T14:20:41Z</time>
      </trkpt>
      <trkpt lat="43.17603" lon="6.63945">
        <ele>37</ele>
        <time>2022-01-13T14:20:53Z</time>
      </trkpt>
      <trkpt lat="43.17606" lon="6.63935">
        <ele>36</ele>
        <time>2022-01-13T14:21:02Z</time>
      </trkpt>
      <trkpt lat="43.17606" lon="6.63916">
        <ele>36</ele>
        <time>2022-01-13T14:21:17Z</time>
      </trkpt>
      <trkpt lat="43.17597" lon="6.63908">
        <ele>35</ele>
        <time>2022-01-13T14:21:33Z</time>
      </trkpt>
      <trkpt lat="43.1759" lon="6.63918">
        <ele>32.599998474121</ele>
        <time>2022-01-13T14:21:49Z</time>
      </trkpt>
      <trkpt lat="43.17579" lon="6.6393">
        <ele>30.39999961853</ele>
        <time>2022-01-13T14:22:11Z</time>
      </trkpt>
      <trkpt lat="43.17576" lon="6.63942">
        <ele>30</ele>
        <time>2022-01-13T14:22:32Z</time>
      </trkpt>
      <trkpt lat="43.17564" lon="6.63953">
        <ele>27</ele>
        <time>2022-01-13T14:22:50Z</time>
      </trkpt>
      <trkpt lat="43.17558" lon="6.63961">
        <ele>26.39999961853</ele>
        <time>2022-01-13T14:22:59Z</time>
      </trkpt>
      <trkpt lat="43.17555" lon="6.63968">
        <ele>24.60000038147</ele>
        <time>2022-01-13T14:23:09Z</time>
      </trkpt>
      <trkpt lat="43.17554" lon="6.63982">
        <ele>23.60000038147</ele>
        <time>2022-01-13T14:23:26Z</time>
      </trkpt>
      <trkpt lat="43.17543" lon="6.64001">
        <ele>21.39999961853</ele>
        <time>2022-01-13T14:23:48Z</time>
      </trkpt>
      <trkpt lat="43.17544" lon="6.64004">
        <ele>21.200000762939</ele>
        <time>2022-01-13T14:23:52Z</time>
      </trkpt>
      <trkpt lat="43.17542" lon="6.64013">
        <ele>21</ele>
        <time>2022-01-13T14:24:07Z</time>
      </trkpt>
      <trkpt lat="43.17537" lon="6.64023">
        <ele>19.200000762939</ele>
        <time>2022-01-13T14:24:24Z</time>
      </trkpt>
      <trkpt lat="43.17539" lon="6.64023">
        <ele>18</ele>
        <time>2022-01-13T14:24:50Z</time>
      </trkpt>
      <trkpt lat="43.17539" lon="6.64023">
        <ele>18</ele>
        <time>2022-01-13T14:25:35Z</time>
      </trkpt>
      <trkpt lat="43.17539" lon="6.64023">
        <ele>18.39999961853</ele>
        <time>2022-01-13T14:26:09Z</time>
      </trkpt>
      <trkpt lat="43.17538" lon="6.64023">
        <ele>18.799999237061</ele>
        <time>2022-01-13T14:27:04Z</time>
      </trkpt>
      <trkpt lat="43.17542" lon="6.64018">
        <ele>18.799999237061</ele>
        <time>2022-01-13T14:28:05Z</time>
      </trkpt>
      <trkpt lat="43.17542" lon="6.64008">
        <ele>20.39999961853</ele>
        <time>2022-01-13T14:28:19Z</time>
      </trkpt>
      <trkpt lat="43.17534" lon="6.64">
        <ele>20.799999237061</ele>
        <time>2022-01-13T14:28:30Z</time>
      </trkpt>
      <trkpt lat="43.17512" lon="6.63992">
        <ele>19.200000762939</ele>
        <time>2022-01-13T14:28:50Z</time>
      </trkpt>
      <trkpt lat="43.1749" lon="6.63983">
        <ele>18.200000762939</ele>
        <time>2022-01-13T14:29:12Z</time>
      </trkpt>
      <trkpt lat="43.17467" lon="6.63985">
        <ele>18.200000762939</ele>
        <time>2022-01-13T14:29:33Z</time>
      </trkpt>
      <trkpt lat="43.17449" lon="6.63987">
        <ele>18.39999961853</ele>
        <time>2022-01-13T14:29:52Z</time>
      </trkpt>
      <trkpt lat="43.17432" lon="6.63987">
        <ele>19</ele>
        <time>2022-01-13T14:30:12Z</time>
      </trkpt>
      <trkpt lat="43.17415" lon="6.63973">
        <ele>18.200000762939</ele>
        <time>2022-01-13T14:30:39Z</time>
      </trkpt>
      <trkpt lat="43.17405" lon="6.63966">
        <ele>18</ele>
        <time>2022-01-13T14:30:54Z</time>
      </trkpt>
      <trkpt lat="43.17397" lon="6.63962">
        <ele>18</ele>
        <time>2022-01-13T14:31:04Z</time>
      </trkpt>
      <trkpt lat="43.17384" lon="6.63949">
        <ele>17.799999237061</ele>
        <time>2022-01-13T14:31:21Z</time>
      </trkpt>
      <trkpt lat="43.1737" lon="6.63942">
        <ele>18</ele>
        <time>2022-01-13T14:31:35Z</time>
      </trkpt>
      <trkpt lat="43.17367" lon="6.63941">
        <ele>18</ele>
        <time>2022-01-13T14:31:38Z</time>
      </trkpt>
      <trkpt lat="43.17353" lon="6.63929">
        <ele>18.39999961853</ele>
        <time>2022-01-13T14:31:56Z</time>
      </trkpt>
      <trkpt lat="43.17346" lon="6.63926">
        <ele>18.60000038147</ele>
        <time>2022-01-13T14:32:04Z</time>
      </trkpt>
      <trkpt lat="43.17328" lon="6.63915">
        <ele>19.60000038147</ele>
        <time>2022-01-13T14:32:25Z</time>
      </trkpt>
      <trkpt lat="43.17321" lon="6.63912">
        <ele>19.799999237061</ele>
        <time>2022-01-13T14:32:32Z</time>
      </trkpt>
      <trkpt lat="43.17313" lon="6.63908">
        <ele>20</ele>
        <time>2022-01-13T14:32:44Z</time>
      </trkpt>
      <trkpt lat="43.17308" lon="6.63901">
        <ele>20.799999237061</ele>
        <time>2022-01-13T14:32:59Z</time>
      </trkpt>
      <trkpt lat="43.17311" lon="6.63904">
        <ele>21</ele>
        <time>2022-01-13T14:33:12Z</time>
      </trkpt>
      <trkpt lat="43.17314" lon="6.63907">
        <ele>20.39999961853</ele>
        <time>2022-01-13T14:33:28Z</time>
      </trkpt>
      <trkpt lat="43.17314" lon="6.63907">
        <ele>20.200000762939</ele>
        <time>2022-01-13T14:33:49Z</time>
      </trkpt>
      <trkpt lat="43.17316" lon="6.63908">
        <ele>20</ele>
        <time>2022-01-13T14:34:58Z</time>
      </trkpt>
      <trkpt lat="43.17316" lon="6.63907">
        <ele>20.39999961853</ele>
        <time>2022-01-13T14:35:54Z</time>
      </trkpt>
      <trkpt lat="43.17319" lon="6.63917">
        <ele>19.39999961853</ele>
        <time>2022-01-13T14:36:10Z</time>
      </trkpt>
      <trkpt lat="43.17309" lon="6.63926">
        <ele>18</ele>
        <time>2022-01-13T14:36:22Z</time>
      </trkpt>
      <trkpt lat="43.17294" lon="6.63931">
        <ele>16.60000038147</ele>
        <time>2022-01-13T14:36:41Z</time>
      </trkpt>
      <trkpt lat="43.17294" lon="6.63939">
        <ele>16.200000762939</ele>
        <time>2022-01-13T14:37:03Z</time>
      </trkpt>
      <trkpt lat="43.17285" lon="6.63946">
        <ele>14.39999961853</ele>
        <time>2022-01-13T14:37:20Z</time>
      </trkpt>
      <trkpt lat="43.17279" lon="6.63948">
        <ele>14.39999961853</ele>
        <time>2022-01-13T14:37:42Z</time>
      </trkpt>
      <trkpt lat="43.17276" lon="6.63949">
        <ele>14.60000038147</ele>
        <time>2022-01-13T14:37:59Z</time>
      </trkpt>
      <trkpt lat="43.17274" lon="6.63953">
        <ele>14.800000190735</ele>
        <time>2022-01-13T14:39:14Z</time>
      </trkpt>
      <trkpt lat="43.17258" lon="6.63964">
        <ele>15.39999961853</ele>
        <time>2022-01-13T14:39:36Z</time>
      </trkpt>
      <trkpt lat="43.17251" lon="6.63978">
        <ele>14.60000038147</ele>
        <time>2022-01-13T14:39:57Z</time>
      </trkpt>
      <trkpt lat="43.17252" lon="6.63984">
        <ele>14</ele>
        <time>2022-01-13T14:40:24Z</time>
      </trkpt>
      <trkpt lat="43.17252" lon="6.6398">
        <ele>13.800000190735</ele>
        <time>2022-01-13T14:41:11Z</time>
      </trkpt>
      <trkpt lat="43.17262" lon="6.63968">
        <ele>14.39999961853</ele>
        <time>2022-01-13T14:41:29Z</time>
      </trkpt>
      <trkpt lat="43.17263" lon="6.63966">
        <ele>14.60000038147</ele>
        <time>2022-01-13T14:41:31Z</time>
      </trkpt>
      <trkpt lat="43.17276" lon="6.63953">
        <ele>14.199999809265</ele>
        <time>2022-01-13T14:41:49Z</time>
      </trkpt>
      <trkpt lat="43.1729" lon="6.63947">
        <ele>13.60000038147</ele>
        <time>2022-01-13T14:42:07Z</time>
      </trkpt>
      <trkpt lat="43.173" lon="6.63933">
        <ele>15.199999809265</ele>
        <time>2022-01-13T14:42:30Z</time>
      </trkpt>
      <trkpt lat="43.17302" lon="6.63931">
        <ele>15.800000190735</ele>
        <time>2022-01-13T14:42:37Z</time>
      </trkpt>
      <trkpt lat="43.17316" lon="6.63922">
        <ele>16.39999961853</ele>
        <time>2022-01-13T14:42:56Z</time>
      </trkpt>
      <trkpt lat="43.17328" lon="6.63916">
        <ele>18</ele>
        <time>2022-01-13T14:43:11Z</time>
      </trkpt>
      <trkpt lat="43.17346" lon="6.63925">
        <ele>18.39999961853</ele>
        <time>2022-01-13T14:43:28Z</time>
      </trkpt>
      <trkpt lat="43.17367" lon="6.63937">
        <ele>17.39999961853</ele>
        <time>2022-01-13T14:43:49Z</time>
      </trkpt>
      <trkpt lat="43.17386" lon="6.63947">
        <ele>16.799999237061</ele>
        <time>2022-01-13T14:44:09Z</time>
      </trkpt>
      <trkpt lat="43.17391" lon="6.63951">
        <ele>16.39999961853</ele>
        <time>2022-01-13T14:44:15Z</time>
      </trkpt>
      <trkpt lat="43.17395" lon="6.63957">
        <ele>15.800000190735</ele>
        <time>2022-01-13T14:44:21Z</time>
      </trkpt>
      <trkpt lat="43.17417" lon="6.63971">
        <ele>15.800000190735</ele>
        <time>2022-01-13T14:44:45Z</time>
      </trkpt>
      <trkpt lat="43.17434" lon="6.63986">
        <ele>16</ele>
        <time>2022-01-13T14:45:06Z</time>
      </trkpt>
      <trkpt lat="43.17457" lon="6.63986">
        <ele>16.799999237061</ele>
        <time>2022-01-13T14:45:28Z</time>
      </trkpt>
      <trkpt lat="43.17475" lon="6.63984">
        <ele>16.60000038147</ele>
        <time>2022-01-13T14:45:47Z</time>
      </trkpt>
      <trkpt lat="43.17496" lon="6.63983">
        <ele>16.60000038147</ele>
        <time>2022-01-13T14:46:08Z</time>
      </trkpt>
      <trkpt lat="43.17517" lon="6.63992">
        <ele>16.60000038147</ele>
        <time>2022-01-13T14:46:29Z</time>
      </trkpt>
      <trkpt lat="43.17535" lon="6.63997">
        <ele>18.39999961853</ele>
        <time>2022-01-13T14:46:50Z</time>
      </trkpt>
      <trkpt lat="43.17542" lon="6.64001">
        <ele>18.60000038147</ele>
        <time>2022-01-13T14:46:59Z</time>
      </trkpt>
      <trkpt lat="43.17553" lon="6.63989">
        <ele>19.799999237061</ele>
        <time>2022-01-13T14:47:16Z</time>
      </trkpt>
      <trkpt lat="43.17558" lon="6.63973">
        <ele>21.200000762939</ele>
        <time>2022-01-13T14:47:33Z</time>
      </trkpt>
      <trkpt lat="43.17566" lon="6.63956">
        <ele>23.60000038147</ele>
        <time>2022-01-13T14:47:51Z</time>
      </trkpt>
      <trkpt lat="43.17576" lon="6.63943">
        <ele>26</ele>
        <time>2022-01-13T14:48:12Z</time>
      </trkpt>
      <trkpt lat="43.17587" lon="6.63923">
        <ele>28.60000038147</ele>
        <time>2022-01-13T14:48:37Z</time>
      </trkpt>
      <trkpt lat="43.17598" lon="6.63909">
        <ele>31.60000038147</ele>
        <time>2022-01-13T14:49:02Z</time>
      </trkpt>
      <trkpt lat="43.17605" lon="6.63913">
        <ele>33.200000762939</ele>
        <time>2022-01-13T14:49:21Z</time>
      </trkpt>
      <trkpt lat="43.17603" lon="6.63937">
        <ele>34.400001525879</ele>
        <time>2022-01-13T14:49:42Z</time>
      </trkpt>
      <trkpt lat="43.17603" lon="6.63938">
        <ele>34.400001525879</ele>
        <time>2022-01-13T14:49:43Z</time>
      </trkpt>
      <trkpt lat="43.17608" lon="6.63955">
        <ele>34.400001525879</ele>
        <time>2022-01-13T14:49:59Z</time>
      </trkpt>
      <trkpt lat="43.17614" lon="6.6397">
        <ele>37.599998474121</ele>
        <time>2022-01-13T14:50:17Z</time>
      </trkpt>
      <trkpt lat="43.17617" lon="6.63983">
        <ele>40.599998474121</ele>
        <time>2022-01-13T14:50:35Z</time>
      </trkpt>
      <trkpt lat="43.17621" lon="6.64003">
        <ele>43.599998474121</ele>
        <time>2022-01-13T14:51:01Z</time>
      </trkpt>
      <trkpt lat="43.17625" lon="6.64013">
        <ele>45.400001525879</ele>
        <time>2022-01-13T14:51:23Z</time>
      </trkpt>
      <trkpt lat="43.1764" lon="6.64016">
        <ele>43.599998474121</ele>
        <time>2022-01-13T14:51:44Z</time>
      </trkpt>
      <trkpt lat="43.17656" lon="6.64017">
        <ele>41.400001525879</ele>
        <time>2022-01-13T14:52:06Z</time>
      </trkpt>
      <trkpt lat="43.17667" lon="6.64015">
        <ele>41.200000762939</ele>
        <time>2022-01-13T14:52:18Z</time>
      </trkpt>
      <trkpt lat="43.17686" lon="6.64019">
        <ele>38.799999237061</ele>
        <time>2022-01-13T14:52:35Z</time>
      </trkpt>
      <trkpt lat="43.17707" lon="6.64022">
        <ele>38.400001525879</ele>
        <time>2022-01-13T14:52:55Z</time>
      </trkpt>
      <trkpt lat="43.17724" lon="6.64022">
        <ele>39.200000762939</ele>
        <time>2022-01-13T14:53:14Z</time>
      </trkpt>
      <trkpt lat="43.17745" lon="6.6402">
        <ele>39.799999237061</ele>
        <time>2022-01-13T14:53:34Z</time>
      </trkpt>
      <trkpt lat="43.17761" lon="6.6402">
        <ele>39</ele>
        <time>2022-01-13T14:53:54Z</time>
      </trkpt>
      <trkpt lat="43.17776" lon="6.64011">
        <ele>38.400001525879</ele>
        <time>2022-01-13T14:54:13Z</time>
      </trkpt>
      <trkpt lat="43.17778" lon="6.64009">
        <ele>38.200000762939</ele>
        <time>2022-01-13T14:54:15Z</time>
      </trkpt>
      <trkpt lat="43.17792" lon="6.64006">
        <ele>37.599998474121</ele>
        <time>2022-01-13T14:54:30Z</time>
      </trkpt>
      <trkpt lat="43.17801" lon="6.63998">
        <ele>36.799999237061</ele>
        <time>2022-01-13T14:54:40Z</time>
      </trkpt>
      <trkpt lat="43.17813" lon="6.63991">
        <ele>35.400001525879</ele>
        <time>2022-01-13T14:54:56Z</time>
      </trkpt>
      <trkpt lat="43.17833" lon="6.63987">
        <ele>33.599998474121</ele>
        <time>2022-01-13T14:55:14Z</time>
      </trkpt>
      <trkpt lat="43.17847" lon="6.63981">
        <ele>33.400001525879</ele>
        <time>2022-01-13T14:55:27Z</time>
      </trkpt>
      <trkpt lat="43.17866" lon="6.63976">
        <ele>33.599998474121</ele>
        <time>2022-01-13T14:55:46Z</time>
      </trkpt>
      <trkpt lat="43.17881" lon="6.63968">
        <ele>34.400001525879</ele>
        <time>2022-01-13T14:56:05Z</time>
      </trkpt>
      <trkpt lat="43.17894" lon="6.63961">
        <ele>37</ele>
        <time>2022-01-13T14:56:28Z</time>
      </trkpt>
      <trkpt lat="43.17899" lon="6.6396">
        <ele>37.599998474121</ele>
        <time>2022-01-13T14:56:33Z</time>
      </trkpt>
      <trkpt lat="43.17902" lon="6.6396">
        <ele>38</ele>
        <time>2022-01-13T14:56:37Z</time>
      </trkpt>
      <trkpt lat="43.17915" lon="6.63963">
        <ele>38.599998474121</ele>
        <time>2022-01-13T14:56:51Z</time>
      </trkpt>
      <trkpt lat="43.17923" lon="6.63967">
        <ele>38.400001525879</ele>
        <time>2022-01-13T14:57:02Z</time>
      </trkpt>
      <trkpt lat="43.17937" lon="6.63971">
        <ele>36.200000762939</ele>
        <time>2022-01-13T14:57:19Z</time>
      </trkpt>
      <trkpt lat="43.17953" lon="6.6397">
        <ele>34.200000762939</ele>
        <time>2022-01-13T14:57:37Z</time>
      </trkpt>
      <trkpt lat="43.17961" lon="6.63966">
        <ele>33.599998474121</ele>
        <time>2022-01-13T14:57:48Z</time>
      </trkpt>
      <trkpt lat="43.17975" lon="6.6396">
        <ele>32</ele>
        <time>2022-01-13T14:58:03Z</time>
      </trkpt>
      <trkpt lat="43.17994" lon="6.63945">
        <ele>30.39999961853</ele>
        <time>2022-01-13T14:58:24Z</time>
      </trkpt>
      <trkpt lat="43.18013" lon="6.63941">
        <ele>29.799999237061</ele>
        <time>2022-01-13T14:58:42Z</time>
      </trkpt>
      <trkpt lat="43.18031" lon="6.63942">
        <ele>30.39999961853</ele>
        <time>2022-01-13T14:59:01Z</time>
      </trkpt>
      <trkpt lat="43.18043" lon="6.63953">
        <ele>30.39999961853</ele>
        <time>2022-01-13T14:59:18Z</time>
      </trkpt>
      <trkpt lat="43.18058" lon="6.63959">
        <ele>28</ele>
        <time>2022-01-13T14:59:34Z</time>
      </trkpt>
      <trkpt lat="43.18075" lon="6.63963">
        <ele>26.60000038147</ele>
        <time>2022-01-13T14:59:51Z</time>
      </trkpt>
      <trkpt lat="43.18086" lon="6.63967">
        <ele>25.799999237061</ele>
        <time>2022-01-13T15:00:04Z</time>
      </trkpt>
      <trkpt lat="43.18101" lon="6.63958">
        <ele>25.799999237061</ele>
        <time>2022-01-13T15:00:22Z</time>
      </trkpt>
      <trkpt lat="43.18104" lon="6.63958">
        <ele>25.60000038147</ele>
        <time>2022-01-13T15:00:24Z</time>
      </trkpt>
      <trkpt lat="43.18114" lon="6.63958">
        <ele>24.200000762939</ele>
        <time>2022-01-13T15:00:37Z</time>
      </trkpt>
      <trkpt lat="43.18123" lon="6.6397">
        <ele>23.799999237061</ele>
        <time>2022-01-13T15:00:54Z</time>
      </trkpt>
      <trkpt lat="43.1813" lon="6.63972">
        <ele>25.39999961853</ele>
        <time>2022-01-13T15:01:03Z</time>
      </trkpt>
      <trkpt lat="43.18144" lon="6.63975">
        <ele>27.200000762939</ele>
        <time>2022-01-13T15:01:19Z</time>
      </trkpt>
      <trkpt lat="43.18155" lon="6.63978">
        <ele>27.799999237061</ele>
        <time>2022-01-13T15:01:37Z</time>
      </trkpt>
      <trkpt lat="43.18162" lon="6.63984">
        <ele>27.799999237061</ele>
        <time>2022-01-13T15:01:46Z</time>
      </trkpt>
      <trkpt lat="43.18169" lon="6.63996">
        <ele>27.799999237061</ele>
        <time>2022-01-13T15:02:06Z</time>
      </trkpt>
      <trkpt lat="43.18174" lon="6.64013">
        <ele>25.799999237061</ele>
        <time>2022-01-13T15:02:24Z</time>
      </trkpt>
      <trkpt lat="43.18178" lon="6.64025">
        <ele>22.39999961853</ele>
        <time>2022-01-13T15:02:41Z</time>
      </trkpt>
      <trkpt lat="43.18183" lon="6.64035">
        <ele>19.39999961853</ele>
        <time>2022-01-13T15:02:56Z</time>
      </trkpt>
      <trkpt lat="43.18182" lon="6.64048">
        <ele>17.39999961853</ele>
        <time>2022-01-13T15:03:15Z</time>
      </trkpt>
      <trkpt lat="43.18187" lon="6.64054">
        <ele>14.39999961853</ele>
        <time>2022-01-13T15:03:34Z</time>
      </trkpt>
      <trkpt lat="43.18189" lon="6.64055">
        <ele>14</ele>
        <time>2022-01-13T15:03:36Z</time>
      </trkpt>
      <trkpt lat="43.18201" lon="6.64066">
        <ele>11.800000190735</ele>
        <time>2022-01-13T15:03:54Z</time>
      </trkpt>
      <trkpt lat="43.18205" lon="6.64079">
        <ele>12.199999809265</ele>
        <time>2022-01-13T15:04:15Z</time>
      </trkpt>
      <trkpt lat="43.18207" lon="6.64091">
        <ele>13</ele>
        <time>2022-01-13T15:04:33Z</time>
      </trkpt>
      <trkpt lat="43.1821" lon="6.64107">
        <ele>12.800000190735</ele>
        <time>2022-01-13T15:04:47Z</time>
      </trkpt>
      <trkpt lat="43.18215" lon="6.64122">
        <ele>13.39999961853</ele>
        <time>2022-01-13T15:05:04Z</time>
      </trkpt>
      <trkpt lat="43.18218" lon="6.64128">
        <ele>14.199999809265</ele>
        <time>2022-01-13T15:05:08Z</time>
      </trkpt>
      <trkpt lat="43.18223" lon="6.64141">
        <ele>15</ele>
        <time>2022-01-13T15:05:22Z</time>
      </trkpt>
      <trkpt lat="43.1823" lon="6.64149">
        <ele>18.200000762939</ele>
        <time>2022-01-13T15:05:36Z</time>
      </trkpt>
      <trkpt lat="43.18247" lon="6.64153">
        <ele>21.200000762939</ele>
        <time>2022-01-13T15:05:55Z</time>
      </trkpt>
      <trkpt lat="43.18261" lon="6.64144">
        <ele>23.200000762939</ele>
        <time>2022-01-13T15:06:20Z</time>
      </trkpt>
      <trkpt lat="43.18271" lon="6.64144">
        <ele>25.799999237061</ele>
        <time>2022-01-13T15:06:38Z</time>
      </trkpt>
      <trkpt lat="43.18273" lon="6.6415">
        <ele>26.60000038147</ele>
        <time>2022-01-13T15:06:55Z</time>
      </trkpt>
      <trkpt lat="43.18276" lon="6.64151">
        <ele>26.60000038147</ele>
        <time>2022-01-13T15:06:58Z</time>
      </trkpt>
      <trkpt lat="43.18285" lon="6.64167">
        <ele>26.60000038147</ele>
        <time>2022-01-13T15:07:17Z</time>
      </trkpt>
      <trkpt lat="43.18289" lon="6.64177">
        <ele>27</ele>
        <time>2022-01-13T15:07:30Z</time>
      </trkpt>
      <trkpt lat="43.1829" lon="6.6418">
        <ele>27.200000762939</ele>
        <time>2022-01-13T15:07:33Z</time>
      </trkpt>
      <trkpt lat="43.18298" lon="6.64195">
        <ele>28</ele>
        <time>2022-01-13T15:07:51Z</time>
      </trkpt>
      <trkpt lat="43.18313" lon="6.64206">
        <ele>29.200000762939</ele>
        <time>2022-01-13T15:08:13Z</time>
      </trkpt>
      <trkpt lat="43.18329" lon="6.64219">
        <ele>32.200000762939</ele>
        <time>2022-01-13T15:08:34Z</time>
      </trkpt>
      <trkpt lat="43.18346" lon="6.64224">
        <ele>35.400001525879</ele>
        <time>2022-01-13T15:08:52Z</time>
      </trkpt>
      <trkpt lat="43.18359" lon="6.64219">
        <ele>37</ele>
        <time>2022-01-13T15:09:06Z</time>
      </trkpt>
      <trkpt lat="43.1838" lon="6.6421">
        <ele>38.599998474121</ele>
        <time>2022-01-13T15:09:26Z</time>
      </trkpt>
      <trkpt lat="43.18386" lon="6.64207">
        <ele>38.599998474121</ele>
        <time>2022-01-13T15:09:32Z</time>
      </trkpt>
      <trkpt lat="43.18409" lon="6.64201">
        <ele>38.200000762939</ele>
        <time>2022-01-13T15:09:52Z</time>
      </trkpt>
      <trkpt lat="43.18426" lon="6.64194">
        <ele>38.200000762939</ele>
        <time>2022-01-13T15:10:09Z</time>
      </trkpt>
      <trkpt lat="43.18444" lon="6.64189">
        <ele>38</ele>
        <time>2022-01-13T15:10:28Z</time>
      </trkpt>
      <trkpt lat="43.1846" lon="6.64182">
        <ele>37.799999237061</ele>
        <time>2022-01-13T15:10:46Z</time>
      </trkpt>
      <trkpt lat="43.18476" lon="6.64169">
        <ele>37.400001525879</ele>
        <time>2022-01-13T15:11:05Z</time>
      </trkpt>
      <trkpt lat="43.18505" lon="6.64159">
        <ele>36.599998474121</ele>
        <time>2022-01-13T15:11:31Z</time>
      </trkpt>
      <trkpt lat="43.18523" lon="6.64151">
        <ele>35.799999237061</ele>
        <time>2022-01-13T15:11:49Z</time>
      </trkpt>
      <trkpt lat="43.18538" lon="6.64144">
        <ele>34.799999237061</ele>
        <time>2022-01-13T15:12:06Z</time>
      </trkpt>
      <trkpt lat="43.18546" lon="6.64141">
        <ele>34.200000762939</ele>
        <time>2022-01-13T15:12:19Z</time>
      </trkpt>
      <trkpt lat="43.18561" lon="6.64134">
        <ele>33</ele>
        <time>2022-01-13T15:12:35Z</time>
      </trkpt>
      <trkpt lat="43.18576" lon="6.64125">
        <ele>31.60000038147</ele>
        <time>2022-01-13T15:12:51Z</time>
      </trkpt>
      <trkpt lat="43.1858" lon="6.64121">
        <ele>31</ele>
        <time>2022-01-13T15:12:57Z</time>
      </trkpt>
      <trkpt lat="43.18595" lon="6.64114">
        <ele>28.799999237061</ele>
        <time>2022-01-13T15:13:17Z</time>
      </trkpt>
      <trkpt lat="43.18607" lon="6.64115">
        <ele>27.799999237061</ele>
        <time>2022-01-13T15:13:26Z</time>
      </trkpt>
      <trkpt lat="43.18628" lon="6.64124">
        <ele>26.799999237061</ele>
        <time>2022-01-13T15:13:44Z</time>
      </trkpt>
      <trkpt lat="43.18653" lon="6.64133">
        <ele>25</ele>
        <time>2022-01-13T15:14:09Z</time>
      </trkpt>
      <trkpt lat="43.18673" lon="6.64139">
        <ele>23.60000038147</ele>
        <time>2022-01-13T15:14:29Z</time>
      </trkpt>
      <trkpt lat="43.18695" lon="6.64149">
        <ele>22.200000762939</ele>
        <time>2022-01-13T15:14:51Z</time>
      </trkpt>
      <trkpt lat="43.18708" lon="6.64159">
        <ele>21</ele>
        <time>2022-01-13T15:15:09Z</time>
      </trkpt>
      <trkpt lat="43.18725" lon="6.64165">
        <ele>20</ele>
        <time>2022-01-13T15:15:26Z</time>
      </trkpt>
      <trkpt lat="43.18731" lon="6.64156">
        <ele>19.60000038147</ele>
        <time>2022-01-13T15:15:37Z</time>
      </trkpt>
      <trkpt lat="43.18743" lon="6.64144">
        <ele>19.200000762939</ele>
        <time>2022-01-13T15:15:56Z</time>
      </trkpt>
      <trkpt lat="43.18748" lon="6.64142">
        <ele>19.39999961853</ele>
        <time>2022-01-13T15:16:03Z</time>
      </trkpt>
      <trkpt lat="43.18749" lon="6.64141">
        <ele>19.39999961853</ele>
        <time>2022-01-13T15:16:07Z</time>
      </trkpt>
      <trkpt lat="43.18747" lon="6.64138">
        <ele>20</ele>
        <time>2022-01-13T15:16:24Z</time>
      </trkpt>
    </trkseg>
  </trk>
</gpx>